﻿<?xml version="1.0" encoding="UTF-8" standalone="no"?>
<gpx xmlns="http://www.topografix.com/GPX/1/1" creator="GPS-Track-Analyse.NET 4.x" version="1.1" xmlns:xsi="http://www.w3.org/2001/XMLSchema-instance" xsi:schemaLocation="http://www.topografix.com/GPX/1/1 http://www.topografix.com/GPX/1/1/gpx.xsd">
<metadata>
<link href="http://www.gps-freeware.de">
<text>Download GPS-Track-Analyse</text>
</link>
<time>2009-07-14T18:43:40.272Z</time>
<bounds maxlat="28.148051" maxlon="-17.284151" minlat="28.128969" minlon="-17.320546" />
</metadata>
<wpt lat="28.143061" lon="-17.285354">
<ele>1092.195000</ele>
<time>2009-06-09T10:19:55.000Z</time>
<name>Start</name>
<cmt>09-JUN-09 5:20:01</cmt>
<sym>Flag, Blue</sym>
</wpt>
<wpt lat="28.143598" lon="-17.285792">
<ele>1093.156000</ele>
<time>2009-06-09T10:24:22.000Z</time>
<name>002</name>
<cmt>09-JUN-09 5:25:51</cmt>
<sym>Flag, Blue</sym>
</wpt>
<wpt lat="28.146889" lon="-17.286577">
<ele>1060.952000</ele>
<time>2009-06-09T10:36:24.000Z</time>
<name>003</name>
<cmt>09-JUN-09 5:39:28</cmt>
<sym>Flag, Blue</sym>
</wpt>
<wpt lat="28.147641" lon="-17.290020">
<ele>1084.985000</ele>
<time>2009-06-09T10:54:32.000Z</time>
<name>004</name>
<cmt>09-JUN-09 5:58:06</cmt>
<sym>Flag, Blue</sym>
</wpt>
<wpt lat="28.143659" lon="-17.295611">
<ele>990.775900</ele>
<time>2009-06-09T11:17:42.000Z</time>
<name>005</name>
<cmt>09-JUN-09 6:18:52</cmt>
<sym>Flag, Blue</sym>
</wpt>
<wpt lat="28.140308" lon="-17.305406">
<ele>922.522200</ele>
<time>2009-06-09T11:46:20.000Z</time>
<name>006</name>
<cmt>09-JUN-09 6:52:29</cmt>
<sym>Flag, Blue</sym>
</wpt>
<wpt lat="28.137793" lon="-17.310980">
<ele>890.318100</ele>
<time>2009-06-09T12:09:29.000Z</time>
<name>007</name>
<cmt>09-JUN-09 7:12:00</cmt>
<sym>Flag, Blue</sym>
</wpt>
<wpt lat="28.133859" lon="-17.316362">
<ele>842.252200</ele>
<time>2009-06-09T12:33:10.000Z</time>
<name>008</name>
<cmt>09-JUN-09 7:36:45</cmt>
<sym>Flag, Blue</sym>
</wpt>
<wpt lat="28.132832" lon="-17.319341">
<ele>814.854700</ele>
<time>2009-06-09T12:43:07.000Z</time>
<name>010</name>
<cmt>09-JUN-09 7:46:27</cmt>
<sym>Flag, Blue</sym>
</wpt>
<wpt lat="28.139948" lon="-17.305987">
<ele>897.047400</ele>
<time>2009-06-09T13:53:50.000Z</time>
<name>011</name>
<cmt>09-JUN-09 8:55:03</cmt>
<sym>Flag, Blue</sym>
</wpt>
<wpt lat="28.138672" lon="-17.303925">
<ele>898.970000</ele>
<time>2009-06-09T14:00:12.000Z</time>
<name>012</name>
<cmt>09-JUN-09 9:01:44</cmt>
<sym>Flag, Blue</sym>
</wpt>
<wpt lat="28.130257" lon="-17.292876">
<ele>1009.522000</ele>
<time>2009-06-09T14:36:55.000Z</time>
<name>Gasthaus</name>
<cmt>09-JUN-09 9:38:41</cmt>
<sym>Waypoint</sym>
</wpt>
<wpt lat="28.129999" lon="-17.292938">
<ele>1009.041000</ele>
<time>2009-06-09T14:37:20.000Z</time>
<name>014</name>
<cmt>09-JUN-09 10:16:27</cmt>
<sym>Flag, Blue</sym>
</wpt>
<wpt lat="28.133743" lon="-17.289831">
<ele>1037.400000</ele>
<time>2009-06-09T15:33:28.000Z</time>
<name>015</name>
<cmt>09-JUN-09 10:37:19</cmt>
<sym>Flag, Blue</sym>
</wpt>
<wpt lat="28.139239" lon="-17.285072">
<ele>1055.184000</ele>
<time>2009-06-09T15:56:55.000Z</time>
<name>Ziel</name>
<cmt>09-JUN-09 10:58:02</cmt>
<sym>Flag, Blue</sym>
</wpt>
<trk>
<name>ACTIVE LOG</name>
<trkseg>
<trkpt lat="28.143061" lon="-17.285354">
<ele>1092.195000</ele>
<time>2009-06-09T10:19:55.000Z</time>
</trkpt>
<trkpt lat="28.143061" lon="-17.285354">
<ele>1092.195000</ele>
<time>2009-06-09T10:19:56.000Z</time>
</trkpt>
<trkpt lat="28.143061" lon="-17.285354">
<ele>1090.753000</ele>
<time>2009-06-09T10:19:57.000Z</time>
</trkpt>
<trkpt lat="28.143061" lon="-17.285354">
<ele>1089.792000</ele>
<time>2009-06-09T10:20:08.000Z</time>
</trkpt>
<trkpt lat="28.143061" lon="-17.285354">
<ele>1091.714000</ele>
<time>2009-06-09T10:20:12.000Z</time>
</trkpt>
<trkpt lat="28.143268" lon="-17.285598">
<ele>1092.195000</ele>
<time>2009-06-09T10:23:59.000Z</time>
</trkpt>
<trkpt lat="28.143598" lon="-17.285792">
<ele>1093.156000</ele>
<time>2009-06-09T10:24:22.000Z</time>
</trkpt>
<trkpt lat="28.143767" lon="-17.285839">
<ele>1094.598000</ele>
<time>2009-06-09T10:24:41.000Z</time>
</trkpt>
<trkpt lat="28.144060" lon="-17.285941">
<ele>1096.040000</ele>
<time>2009-06-09T10:25:07.000Z</time>
</trkpt>
<trkpt lat="28.144181" lon="-17.285943">
<ele>1096.040000</ele>
<time>2009-06-09T10:25:26.000Z</time>
</trkpt>
<trkpt lat="28.144182" lon="-17.285969">
<ele>1096.040000</ele>
<time>2009-06-09T10:25:52.000Z</time>
</trkpt>
<trkpt lat="28.144302" lon="-17.286003">
<ele>1094.598000</ele>
<time>2009-06-09T10:26:21.000Z</time>
</trkpt>
<trkpt lat="28.144634" lon="-17.286141">
<ele>1091.234000</ele>
<time>2009-06-09T10:27:01.000Z</time>
</trkpt>
<trkpt lat="28.144918" lon="-17.286147">
<ele>1092.195000</ele>
<time>2009-06-09T10:27:21.000Z</time>
</trkpt>
<trkpt lat="28.144926" lon="-17.286142">
<ele>1089.311000</ele>
<time>2009-06-09T10:27:28.000Z</time>
</trkpt>
<trkpt lat="28.144928" lon="-17.286142">
<ele>1092.676000</ele>
<time>2009-06-09T10:27:30.000Z</time>
</trkpt>
<trkpt lat="28.144944" lon="-17.286157">
<ele>1091.234000</ele>
<time>2009-06-09T10:29:53.000Z</time>
</trkpt>
<trkpt lat="28.145033" lon="-17.286191">
<ele>1088.350000</ele>
<time>2009-06-09T10:31:19.000Z</time>
</trkpt>
<trkpt lat="28.145148" lon="-17.286236">
<ele>1084.985000</ele>
<time>2009-06-09T10:31:41.000Z</time>
</trkpt>
<trkpt lat="28.145236" lon="-17.286247">
<ele>1082.101000</ele>
<time>2009-06-09T10:32:01.000Z</time>
</trkpt>
<trkpt lat="28.145316" lon="-17.286263">
<ele>1079.217000</ele>
<time>2009-06-09T10:32:15.000Z</time>
</trkpt>
<trkpt lat="28.145508" lon="-17.286277">
<ele>1075.853000</ele>
<time>2009-06-09T10:32:36.000Z</time>
</trkpt>
<trkpt lat="28.145612" lon="-17.286241">
<ele>1072.969000</ele>
<time>2009-06-09T10:32:53.000Z</time>
</trkpt>
<trkpt lat="28.145817" lon="-17.286266">
<ele>1072.007000</ele>
<time>2009-06-09T10:33:14.000Z</time>
</trkpt>
<trkpt lat="28.146020" lon="-17.286343">
<ele>1071.046000</ele>
<time>2009-06-09T10:33:34.000Z</time>
</trkpt>
<trkpt lat="28.146091" lon="-17.286419">
<ele>1071.046000</ele>
<time>2009-06-09T10:33:50.000Z</time>
</trkpt>
<trkpt lat="28.146245" lon="-17.286446">
<ele>1071.046000</ele>
<time>2009-06-09T10:35:13.000Z</time>
</trkpt>
<trkpt lat="28.146344" lon="-17.286460">
<ele>1067.201000</ele>
<time>2009-06-09T10:35:29.000Z</time>
</trkpt>
<trkpt lat="28.146567" lon="-17.286616">
<ele>1065.759000</ele>
<time>2009-06-09T10:35:45.000Z</time>
</trkpt>
<trkpt lat="28.146776" lon="-17.286571">
<ele>1062.875000</ele>
<time>2009-06-09T10:36:07.000Z</time>
</trkpt>
<trkpt lat="28.146889" lon="-17.286577">
<ele>1060.952000</ele>
<time>2009-06-09T10:36:24.000Z</time>
</trkpt>
<trkpt lat="28.146963" lon="-17.286506">
<ele>1059.030000</ele>
<time>2009-06-09T10:36:41.000Z</time>
</trkpt>
<trkpt lat="28.147063" lon="-17.286447">
<ele>1056.626000</ele>
<time>2009-06-09T10:37:00.000Z</time>
</trkpt>
<trkpt lat="28.147164" lon="-17.286410">
<ele>1053.262000</ele>
<time>2009-06-09T10:37:17.000Z</time>
</trkpt>
<trkpt lat="28.147195" lon="-17.286359">
<ele>1050.378000</ele>
<time>2009-06-09T10:37:34.000Z</time>
</trkpt>
<trkpt lat="28.147242" lon="-17.286290">
<ele>1047.013000</ele>
<time>2009-06-09T10:37:50.000Z</time>
</trkpt>
<trkpt lat="28.147290" lon="-17.286207">
<ele>1044.129000</ele>
<time>2009-06-09T10:38:06.000Z</time>
</trkpt>
<trkpt lat="28.147408" lon="-17.286104">
<ele>1041.726000</ele>
<time>2009-06-09T10:38:22.000Z</time>
</trkpt>
<trkpt lat="28.147528" lon="-17.286015">
<ele>1038.842000</ele>
<time>2009-06-09T10:38:38.000Z</time>
</trkpt>
<trkpt lat="28.147590" lon="-17.285981">
<ele>1037.400000</ele>
<time>2009-06-09T10:39:02.000Z</time>
</trkpt>
<trkpt lat="28.147570" lon="-17.285984">
<ele>1034.035000</ele>
<time>2009-06-09T10:39:30.000Z</time>
</trkpt>
<trkpt lat="28.147572" lon="-17.285988">
<ele>1037.400000</ele>
<time>2009-06-09T10:39:34.000Z</time>
</trkpt>
<trkpt lat="28.147573" lon="-17.285988">
<ele>1037.400000</ele>
<time>2009-06-09T10:39:35.000Z</time>
</trkpt>
<trkpt lat="28.147600" lon="-17.286121">
<ele>1040.284000</ele>
<time>2009-06-09T10:39:53.000Z</time>
</trkpt>
<trkpt lat="28.147604" lon="-17.286326">
<ele>1043.648000</ele>
<time>2009-06-09T10:40:18.000Z</time>
</trkpt>
<trkpt lat="28.147640" lon="-17.286598">
<ele>1046.532000</ele>
<time>2009-06-09T10:40:45.000Z</time>
</trkpt>
<trkpt lat="28.147708" lon="-17.286775">
<ele>1049.897000</ele>
<time>2009-06-09T10:41:07.000Z</time>
</trkpt>
<trkpt lat="28.147770" lon="-17.286909">
<ele>1052.781000</ele>
<time>2009-06-09T10:41:27.000Z</time>
</trkpt>
<trkpt lat="28.147795" lon="-17.287002">
<ele>1056.146000</ele>
<time>2009-06-09T10:41:47.000Z</time>
</trkpt>
<trkpt lat="28.147804" lon="-17.287066">
<ele>1057.588000</ele>
<time>2009-06-09T10:42:15.000Z</time>
</trkpt>
<trkpt lat="28.147931" lon="-17.287184">
<ele>1060.471000</ele>
<time>2009-06-09T10:42:35.000Z</time>
</trkpt>
<trkpt lat="28.147962" lon="-17.287300">
<ele>1063.836000</ele>
<time>2009-06-09T10:42:57.000Z</time>
</trkpt>
<trkpt lat="28.148004" lon="-17.287510">
<ele>1066.720000</ele>
<time>2009-06-09T10:43:21.000Z</time>
</trkpt>
<trkpt lat="28.148035" lon="-17.287552">
<ele>1068.643000</ele>
<time>2009-06-09T10:43:41.000Z</time>
</trkpt>
<trkpt lat="28.147989" lon="-17.287665">
<ele>1069.124000</ele>
<time>2009-06-09T10:44:31.000Z</time>
</trkpt>
<trkpt lat="28.147876" lon="-17.287718">
<ele>1070.085000</ele>
<time>2009-06-09T10:45:01.000Z</time>
</trkpt>
<trkpt lat="28.147888" lon="-17.287876">
<ele>1072.969000</ele>
<time>2009-06-09T10:45:20.000Z</time>
</trkpt>
<trkpt lat="28.147777" lon="-17.287909">
<ele>1075.853000</ele>
<time>2009-06-09T10:45:36.000Z</time>
</trkpt>
<trkpt lat="28.147672" lon="-17.287913">
<ele>1078.256000</ele>
<time>2009-06-09T10:45:51.000Z</time>
</trkpt>
<trkpt lat="28.147600" lon="-17.287863">
<ele>1081.620000</ele>
<time>2009-06-09T10:46:16.000Z</time>
</trkpt>
<trkpt lat="28.147553" lon="-17.287869">
<ele>1083.543000</ele>
<time>2009-06-09T10:46:34.000Z</time>
</trkpt>
<trkpt lat="28.147531" lon="-17.287923">
<ele>1086.427000</ele>
<time>2009-06-09T10:47:10.000Z</time>
</trkpt>
<trkpt lat="28.147435" lon="-17.288208">
<ele>1089.792000</ele>
<time>2009-06-09T10:47:38.000Z</time>
</trkpt>
<trkpt lat="28.147411" lon="-17.288403">
<ele>1092.676000</ele>
<time>2009-06-09T10:48:01.000Z</time>
</trkpt>
<trkpt lat="28.147391" lon="-17.288551">
<ele>1093.637000</ele>
<time>2009-06-09T10:48:19.000Z</time>
</trkpt>
<trkpt lat="28.147371" lon="-17.288797">
<ele>1093.156000</ele>
<time>2009-06-09T10:48:41.000Z</time>
</trkpt>
<trkpt lat="28.147618" lon="-17.289323">
<ele>1092.676000</ele>
<time>2009-06-09T10:48:54.000Z</time>
</trkpt>
<trkpt lat="28.147645" lon="-17.289559">
<ele>1090.753000</ele>
<time>2009-06-09T10:49:10.000Z</time>
</trkpt>
<trkpt lat="28.147635" lon="-17.289707">
<ele>1090.272000</ele>
<time>2009-06-09T10:49:32.000Z</time>
</trkpt>
<trkpt lat="28.147768" lon="-17.289727">
<ele>1094.118000</ele>
<time>2009-06-09T10:50:20.000Z</time>
</trkpt>
<trkpt lat="28.147777" lon="-17.289718">
<ele>1091.234000</ele>
<time>2009-06-09T10:50:21.000Z</time>
</trkpt>
<trkpt lat="28.147795" lon="-17.289726">
<ele>1091.234000</ele>
<time>2009-06-09T10:50:56.000Z</time>
</trkpt>
<trkpt lat="28.147777" lon="-17.289737">
<ele>1091.234000</ele>
<time>2009-06-09T10:52:11.000Z</time>
</trkpt>
<trkpt lat="28.147734" lon="-17.289680">
<ele>1091.234000</ele>
<time>2009-06-09T10:52:27.000Z</time>
</trkpt>
<trkpt lat="28.147656" lon="-17.289769">
<ele>1090.272000</ele>
<time>2009-06-09T10:53:09.000Z</time>
</trkpt>
<trkpt lat="28.147590" lon="-17.289762">
<ele>1091.234000</ele>
<time>2009-06-09T10:53:59.000Z</time>
</trkpt>
<trkpt lat="28.147634" lon="-17.289877">
<ele>1087.869000</ele>
<time>2009-06-09T10:54:16.000Z</time>
</trkpt>
<trkpt lat="28.147641" lon="-17.290020">
<ele>1084.985000</ele>
<time>2009-06-09T10:54:32.000Z</time>
</trkpt>
<trkpt lat="28.147568" lon="-17.290244">
<ele>1082.101000</ele>
<time>2009-06-09T10:54:59.000Z</time>
</trkpt>
<trkpt lat="28.147574" lon="-17.290368">
<ele>1081.620000</ele>
<time>2009-06-09T10:55:16.000Z</time>
</trkpt>
<trkpt lat="28.147572" lon="-17.290475">
<ele>1079.698000</ele>
<time>2009-06-09T10:55:38.000Z</time>
</trkpt>
<trkpt lat="28.148017" lon="-17.290696">
<ele>1079.698000</ele>
<time>2009-06-09T10:57:00.000Z</time>
</trkpt>
<trkpt lat="28.148051" lon="-17.290903">
<ele>1079.217000</ele>
<time>2009-06-09T10:57:25.000Z</time>
</trkpt>
<trkpt lat="28.147976" lon="-17.290943">
<ele>1077.775000</ele>
<time>2009-06-09T10:57:39.000Z</time>
</trkpt>
<trkpt lat="28.147822" lon="-17.290991">
<ele>1075.372000</ele>
<time>2009-06-09T10:58:00.000Z</time>
</trkpt>
<trkpt lat="28.147683" lon="-17.290992">
<ele>1074.411000</ele>
<time>2009-06-09T10:58:19.000Z</time>
</trkpt>
<trkpt lat="28.147620" lon="-17.290911">
<ele>1074.411000</ele>
<time>2009-06-09T10:58:55.000Z</time>
</trkpt>
<trkpt lat="28.147450" lon="-17.291030">
<ele>1071.527000</ele>
<time>2009-06-09T10:59:34.000Z</time>
</trkpt>
<trkpt lat="28.147285" lon="-17.291059">
<ele>1068.162000</ele>
<time>2009-06-09T11:00:01.000Z</time>
</trkpt>
<trkpt lat="28.147205" lon="-17.291029">
<ele>1067.201000</ele>
<time>2009-06-09T11:00:21.000Z</time>
</trkpt>
<trkpt lat="28.146927" lon="-17.291377">
<ele>1065.278000</ele>
<time>2009-06-09T11:01:34.000Z</time>
</trkpt>
<trkpt lat="28.146661" lon="-17.291555">
<ele>1062.875000</ele>
<time>2009-06-09T11:02:15.000Z</time>
</trkpt>
<trkpt lat="28.146460" lon="-17.291678">
<ele>1060.952000</ele>
<time>2009-06-09T11:02:57.000Z</time>
</trkpt>
<trkpt lat="28.146391" lon="-17.291836">
<ele>1058.068000</ele>
<time>2009-06-09T11:03:26.000Z</time>
</trkpt>
<trkpt lat="28.146388" lon="-17.291866">
<ele>1055.184000</ele>
<time>2009-06-09T11:03:51.000Z</time>
</trkpt>
<trkpt lat="28.146366" lon="-17.292039">
<ele>1052.781000</ele>
<time>2009-06-09T11:04:24.000Z</time>
</trkpt>
<trkpt lat="28.146299" lon="-17.292340">
<ele>1049.897000</ele>
<time>2009-06-09T11:04:59.000Z</time>
</trkpt>
<trkpt lat="28.146101" lon="-17.292726">
<ele>1047.013000</ele>
<time>2009-06-09T11:05:23.000Z</time>
</trkpt>
<trkpt lat="28.146081" lon="-17.292759">
<ele>1043.648000</ele>
<time>2009-06-09T11:05:48.000Z</time>
</trkpt>
<trkpt lat="28.146034" lon="-17.292790">
<ele>1040.764000</ele>
<time>2009-06-09T11:06:23.000Z</time>
</trkpt>
<trkpt lat="28.145984" lon="-17.292814">
<ele>1037.400000</ele>
<time>2009-06-09T11:06:56.000Z</time>
</trkpt>
<trkpt lat="28.145985" lon="-17.292889">
<ele>1034.035000</ele>
<time>2009-06-09T11:07:36.000Z</time>
</trkpt>
<trkpt lat="28.145955" lon="-17.292941">
<ele>1031.151000</ele>
<time>2009-06-09T11:08:16.000Z</time>
</trkpt>
<trkpt lat="28.145914" lon="-17.292949">
<ele>1028.267000</ele>
<time>2009-06-09T11:08:58.000Z</time>
</trkpt>
<trkpt lat="28.145879" lon="-17.293010">
<ele>1024.903000</ele>
<time>2009-06-09T11:09:33.000Z</time>
</trkpt>
<trkpt lat="28.145857" lon="-17.293084">
<ele>1022.019000</ele>
<time>2009-06-09T11:10:08.000Z</time>
</trkpt>
<trkpt lat="28.144968" lon="-17.294109">
<ele>1018.654000</ele>
<time>2009-06-09T11:10:49.000Z</time>
</trkpt>
<trkpt lat="28.144793" lon="-17.294296">
<ele>1017.693000</ele>
<time>2009-06-09T11:11:13.000Z</time>
</trkpt>
<trkpt lat="28.144728" lon="-17.294577">
<ele>1015.770000</ele>
<time>2009-06-09T11:11:42.000Z</time>
</trkpt>
<trkpt lat="28.144642" lon="-17.294595">
<ele>1013.847000</ele>
<time>2009-06-09T11:12:11.000Z</time>
</trkpt>
<trkpt lat="28.144618" lon="-17.294610">
<ele>1013.847000</ele>
<time>2009-06-09T11:12:58.000Z</time>
</trkpt>
<trkpt lat="28.144520" lon="-17.294693">
<ele>1010.964000</ele>
<time>2009-06-09T11:13:47.000Z</time>
</trkpt>
<trkpt lat="28.144526" lon="-17.294628">
<ele>1007.599000</ele>
<time>2009-06-09T11:14:29.000Z</time>
</trkpt>
<trkpt lat="28.144397" lon="-17.294694">
<ele>1004.715000</ele>
<time>2009-06-09T11:14:56.000Z</time>
</trkpt>
<trkpt lat="28.144242" lon="-17.294821">
<ele>1001.350000</ele>
<time>2009-06-09T11:15:20.000Z</time>
</trkpt>
<trkpt lat="28.144177" lon="-17.294894">
<ele>998.466300</ele>
<time>2009-06-09T11:15:43.000Z</time>
</trkpt>
<trkpt lat="28.144143" lon="-17.294919">
<ele>995.582500</ele>
<time>2009-06-09T11:16:06.000Z</time>
</trkpt>
<trkpt lat="28.144103" lon="-17.295080">
<ele>992.218000</ele>
<time>2009-06-09T11:16:33.000Z</time>
</trkpt>
<trkpt lat="28.143913" lon="-17.295226">
<ele>990.775900</ele>
<time>2009-06-09T11:17:07.000Z</time>
</trkpt>
<trkpt lat="28.143659" lon="-17.295611">
<ele>990.775900</ele>
<time>2009-06-09T11:17:42.000Z</time>
</trkpt>
<trkpt lat="28.143457" lon="-17.295930">
<ele>991.737300</ele>
<time>2009-06-09T11:18:11.000Z</time>
</trkpt>
<trkpt lat="28.143322" lon="-17.296255">
<ele>992.218000</ele>
<time>2009-06-09T11:18:40.000Z</time>
</trkpt>
<trkpt lat="28.143277" lon="-17.296377">
<ele>991.737300</ele>
<time>2009-06-09T11:19:26.000Z</time>
</trkpt>
<trkpt lat="28.143206" lon="-17.296459">
<ele>991.737300</ele>
<time>2009-06-09T11:20:10.000Z</time>
</trkpt>
<trkpt lat="28.143171" lon="-17.296521">
<ele>989.814700</ele>
<time>2009-06-09T11:21:32.000Z</time>
</trkpt>
<trkpt lat="28.143123" lon="-17.296840">
<ele>989.334000</ele>
<time>2009-06-09T11:25:08.000Z</time>
</trkpt>
<trkpt lat="28.142963" lon="-17.297095">
<ele>989.334000</ele>
<time>2009-06-09T11:25:40.000Z</time>
</trkpt>
<trkpt lat="28.142873" lon="-17.297274">
<ele>989.334000</ele>
<time>2009-06-09T11:25:57.000Z</time>
</trkpt>
<trkpt lat="28.142820" lon="-17.297493">
<ele>988.372800</ele>
<time>2009-06-09T11:26:17.000Z</time>
</trkpt>
<trkpt lat="28.142691" lon="-17.297703">
<ele>988.372800</ele>
<time>2009-06-09T11:26:35.000Z</time>
</trkpt>
<trkpt lat="28.142494" lon="-17.297926">
<ele>988.853500</ele>
<time>2009-06-09T11:26:58.000Z</time>
</trkpt>
<trkpt lat="28.142383" lon="-17.298023">
<ele>989.334000</ele>
<time>2009-06-09T11:27:14.000Z</time>
</trkpt>
<trkpt lat="28.142375" lon="-17.298032">
<ele>989.334000</ele>
<time>2009-06-09T11:27:15.000Z</time>
</trkpt>
<trkpt lat="28.142277" lon="-17.298112">
<ele>988.372800</ele>
<time>2009-06-09T11:27:31.000Z</time>
</trkpt>
<trkpt lat="28.142205" lon="-17.298198">
<ele>987.411100</ele>
<time>2009-06-09T11:27:44.000Z</time>
</trkpt>
<trkpt lat="28.142184" lon="-17.298258">
<ele>986.930400</ele>
<time>2009-06-09T11:28:01.000Z</time>
</trkpt>
<trkpt lat="28.142209" lon="-17.298186">
<ele>986.930400</ele>
<time>2009-06-09T11:28:17.000Z</time>
</trkpt>
<trkpt lat="28.142171" lon="-17.298264">
<ele>983.565900</ele>
<time>2009-06-09T11:33:04.000Z</time>
</trkpt>
<trkpt lat="28.142110" lon="-17.298339">
<ele>982.124000</ele>
<time>2009-06-09T11:33:20.000Z</time>
</trkpt>
<trkpt lat="28.142032" lon="-17.298476">
<ele>979.720700</ele>
<time>2009-06-09T11:33:39.000Z</time>
</trkpt>
<trkpt lat="28.141990" lon="-17.298590">
<ele>976.356200</ele>
<time>2009-06-09T11:33:57.000Z</time>
</trkpt>
<trkpt lat="28.141904" lon="-17.298756">
<ele>974.433600</ele>
<time>2009-06-09T11:34:18.000Z</time>
</trkpt>
<trkpt lat="28.141841" lon="-17.298835">
<ele>972.511000</ele>
<time>2009-06-09T11:34:33.000Z</time>
</trkpt>
<trkpt lat="28.141812" lon="-17.299038">
<ele>970.588100</ele>
<time>2009-06-09T11:34:51.000Z</time>
</trkpt>
<trkpt lat="28.141776" lon="-17.299191">
<ele>968.184800</ele>
<time>2009-06-09T11:35:06.000Z</time>
</trkpt>
<trkpt lat="28.141740" lon="-17.299378">
<ele>966.742900</ele>
<time>2009-06-09T11:35:22.000Z</time>
</trkpt>
<trkpt lat="28.141740" lon="-17.299427">
<ele>966.742900</ele>
<time>2009-06-09T11:35:31.000Z</time>
</trkpt>
<trkpt lat="28.141757" lon="-17.299565">
<ele>964.820300</ele>
<time>2009-06-09T11:35:52.000Z</time>
</trkpt>
<trkpt lat="28.141799" lon="-17.299758">
<ele>962.417000</ele>
<time>2009-06-09T11:36:13.000Z</time>
</trkpt>
<trkpt lat="28.141861" lon="-17.299874">
<ele>960.975100</ele>
<time>2009-06-09T11:36:28.000Z</time>
</trkpt>
<trkpt lat="28.141903" lon="-17.299983">
<ele>958.571800</ele>
<time>2009-06-09T11:36:43.000Z</time>
</trkpt>
<trkpt lat="28.141950" lon="-17.300037">
<ele>958.571800</ele>
<time>2009-06-09T11:36:49.000Z</time>
</trkpt>
<trkpt lat="28.141969" lon="-17.300047">
<ele>958.091300</ele>
<time>2009-06-09T11:36:51.000Z</time>
</trkpt>
<trkpt lat="28.142009" lon="-17.300074">
<ele>957.610600</ele>
<time>2009-06-09T11:36:54.000Z</time>
</trkpt>
<trkpt lat="28.142045" lon="-17.300097">
<ele>957.610600</ele>
<time>2009-06-09T11:36:57.000Z</time>
</trkpt>
<trkpt lat="28.142090" lon="-17.300319">
<ele>958.091300</ele>
<time>2009-06-09T11:37:12.000Z</time>
</trkpt>
<trkpt lat="28.142098" lon="-17.300503">
<ele>958.571800</ele>
<time>2009-06-09T11:37:26.000Z</time>
</trkpt>
<trkpt lat="28.142106" lon="-17.300678">
<ele>959.052500</ele>
<time>2009-06-09T11:37:40.000Z</time>
</trkpt>
<trkpt lat="28.142174" lon="-17.300874">
<ele>959.533200</ele>
<time>2009-06-09T11:37:54.000Z</time>
</trkpt>
<trkpt lat="28.142225" lon="-17.300986">
<ele>959.533200</ele>
<time>2009-06-09T11:38:04.000Z</time>
</trkpt>
<trkpt lat="28.142247" lon="-17.301044">
<ele>959.052500</ele>
<time>2009-06-09T11:38:08.000Z</time>
</trkpt>
<trkpt lat="28.142361" lon="-17.301180">
<ele>958.571800</ele>
<time>2009-06-09T11:38:22.000Z</time>
</trkpt>
<trkpt lat="28.142398" lon="-17.301238">
<ele>957.610600</ele>
<time>2009-06-09T11:38:27.000Z</time>
</trkpt>
<trkpt lat="28.142422" lon="-17.301278">
<ele>958.091300</ele>
<time>2009-06-09T11:38:32.000Z</time>
</trkpt>
<trkpt lat="28.142441" lon="-17.301397">
<ele>956.649200</ele>
<time>2009-06-09T11:38:42.000Z</time>
</trkpt>
<trkpt lat="28.142396" lon="-17.301552">
<ele>955.207000</ele>
<time>2009-06-09T11:38:54.000Z</time>
</trkpt>
<trkpt lat="28.142391" lon="-17.301653">
<ele>955.687700</ele>
<time>2009-06-09T11:39:08.000Z</time>
</trkpt>
<trkpt lat="28.142402" lon="-17.301753">
<ele>953.765100</ele>
<time>2009-06-09T11:39:20.000Z</time>
</trkpt>
<trkpt lat="28.142438" lon="-17.301871">
<ele>951.842500</ele>
<time>2009-06-09T11:39:38.000Z</time>
</trkpt>
<trkpt lat="28.142473" lon="-17.301969">
<ele>950.400600</ele>
<time>2009-06-09T11:40:27.000Z</time>
</trkpt>
<trkpt lat="28.142466" lon="-17.302149">
<ele>949.439200</ele>
<time>2009-06-09T11:40:39.000Z</time>
</trkpt>
<trkpt lat="28.142462" lon="-17.302164">
<ele>948.958500</ele>
<time>2009-06-09T11:40:40.000Z</time>
</trkpt>
<trkpt lat="28.142449" lon="-17.302338">
<ele>947.516600</ele>
<time>2009-06-09T11:40:54.000Z</time>
</trkpt>
<trkpt lat="28.142442" lon="-17.302460">
<ele>946.555400</ele>
<time>2009-06-09T11:41:03.000Z</time>
</trkpt>
<trkpt lat="28.142480" lon="-17.302578">
<ele>944.632600</ele>
<time>2009-06-09T11:41:18.000Z</time>
</trkpt>
<trkpt lat="28.142470" lon="-17.302602">
<ele>943.190700</ele>
<time>2009-06-09T11:41:21.000Z</time>
</trkpt>
<trkpt lat="28.142436" lon="-17.302715">
<ele>941.268100</ele>
<time>2009-06-09T11:41:37.000Z</time>
</trkpt>
<trkpt lat="28.142408" lon="-17.302757">
<ele>940.306900</ele>
<time>2009-06-09T11:41:44.000Z</time>
</trkpt>
<trkpt lat="28.142300" lon="-17.302906">
<ele>938.384000</ele>
<time>2009-06-09T11:41:58.000Z</time>
</trkpt>
<trkpt lat="28.142296" lon="-17.302912">
<ele>937.903300</ele>
<time>2009-06-09T11:41:59.000Z</time>
</trkpt>
<trkpt lat="28.142192" lon="-17.302984">
<ele>936.461400</ele>
<time>2009-06-09T11:42:13.000Z</time>
</trkpt>
<trkpt lat="28.142061" lon="-17.303202">
<ele>934.058100</ele>
<time>2009-06-09T11:42:34.000Z</time>
</trkpt>
<trkpt lat="28.142041" lon="-17.303233">
<ele>933.577400</ele>
<time>2009-06-09T11:42:37.000Z</time>
</trkpt>
<trkpt lat="28.141921" lon="-17.303322">
<ele>932.135500</ele>
<time>2009-06-09T11:42:53.000Z</time>
</trkpt>
<trkpt lat="28.141808" lon="-17.303430">
<ele>932.135500</ele>
<time>2009-06-09T11:43:05.000Z</time>
</trkpt>
<trkpt lat="28.141759" lon="-17.303490">
<ele>931.174300</ele>
<time>2009-06-09T11:43:14.000Z</time>
</trkpt>
<trkpt lat="28.141613" lon="-17.303586">
<ele>930.212900</ele>
<time>2009-06-09T11:43:29.000Z</time>
</trkpt>
<trkpt lat="28.141506" lon="-17.303672">
<ele>929.732200</ele>
<time>2009-06-09T11:43:42.000Z</time>
</trkpt>
<trkpt lat="28.141389" lon="-17.303754">
<ele>929.251500</ele>
<time>2009-06-09T11:43:52.000Z</time>
</trkpt>
<trkpt lat="28.141270" lon="-17.303845">
<ele>929.251500</ele>
<time>2009-06-09T11:44:05.000Z</time>
</trkpt>
<trkpt lat="28.141186" lon="-17.303972">
<ele>928.290300</ele>
<time>2009-06-09T11:44:16.000Z</time>
</trkpt>
<trkpt lat="28.141067" lon="-17.304092">
<ele>927.809600</ele>
<time>2009-06-09T11:44:29.000Z</time>
</trkpt>
<trkpt lat="28.140967" lon="-17.304224">
<ele>926.848400</ele>
<time>2009-06-09T11:44:44.000Z</time>
</trkpt>
<trkpt lat="28.140850" lon="-17.304413">
<ele>926.367700</ele>
<time>2009-06-09T11:44:59.000Z</time>
</trkpt>
<trkpt lat="28.140749" lon="-17.304577">
<ele>926.848400</ele>
<time>2009-06-09T11:45:11.000Z</time>
</trkpt>
<trkpt lat="28.140676" lon="-17.304717">
<ele>926.848400</ele>
<time>2009-06-09T11:45:23.000Z</time>
</trkpt>
<trkpt lat="28.140601" lon="-17.304864">
<ele>925.887000</ele>
<time>2009-06-09T11:45:36.000Z</time>
</trkpt>
<trkpt lat="28.140581" lon="-17.304922">
<ele>925.887000</ele>
<time>2009-06-09T11:45:40.000Z</time>
</trkpt>
<trkpt lat="28.140471" lon="-17.305022">
<ele>924.445100</ele>
<time>2009-06-09T11:45:53.000Z</time>
</trkpt>
<trkpt lat="28.140399" lon="-17.305126">
<ele>923.964100</ele>
<time>2009-06-09T11:46:04.000Z</time>
</trkpt>
<trkpt lat="28.140308" lon="-17.305406">
<ele>922.522200</ele>
<time>2009-06-09T11:46:20.000Z</time>
</trkpt>
<trkpt lat="28.140306" lon="-17.305582">
<ele>922.522200</ele>
<time>2009-06-09T11:46:33.000Z</time>
</trkpt>
<trkpt lat="28.140299" lon="-17.305693">
<ele>922.041500</ele>
<time>2009-06-09T11:46:38.000Z</time>
</trkpt>
<trkpt lat="28.140321" lon="-17.305799">
<ele>921.560800</ele>
<time>2009-06-09T11:46:52.000Z</time>
</trkpt>
<trkpt lat="28.140333" lon="-17.305935">
<ele>919.157700</ele>
<time>2009-06-09T11:47:07.000Z</time>
</trkpt>
<trkpt lat="28.140316" lon="-17.306143">
<ele>916.273700</ele>
<time>2009-06-09T11:47:23.000Z</time>
</trkpt>
<trkpt lat="28.140300" lon="-17.306237">
<ele>914.351100</ele>
<time>2009-06-09T11:47:38.000Z</time>
</trkpt>
<trkpt lat="28.140299" lon="-17.306289">
<ele>912.909200</ele>
<time>2009-06-09T11:48:31.000Z</time>
</trkpt>
<trkpt lat="28.140304" lon="-17.306321">
<ele>910.986600</ele>
<time>2009-06-09T11:48:36.000Z</time>
</trkpt>
<trkpt lat="28.140283" lon="-17.306393">
<ele>910.025100</ele>
<time>2009-06-09T11:49:04.000Z</time>
</trkpt>
<trkpt lat="28.140247" lon="-17.306397">
<ele>910.986600</ele>
<time>2009-06-09T11:50:39.000Z</time>
</trkpt>
<trkpt lat="28.140328" lon="-17.306472">
<ele>909.544700</ele>
<time>2009-06-09T11:52:51.000Z</time>
</trkpt>
<trkpt lat="28.140344" lon="-17.306479">
<ele>909.064000</ele>
<time>2009-06-09T11:53:21.000Z</time>
</trkpt>
<trkpt lat="28.140363" lon="-17.306557">
<ele>907.141100</ele>
<time>2009-06-09T11:55:02.000Z</time>
</trkpt>
<trkpt lat="28.140398" lon="-17.306726">
<ele>904.737800</ele>
<time>2009-06-09T11:55:17.000Z</time>
</trkpt>
<trkpt lat="28.140402" lon="-17.306784">
<ele>903.776600</ele>
<time>2009-06-09T11:55:22.000Z</time>
</trkpt>
<trkpt lat="28.140445" lon="-17.306953">
<ele>902.815200</ele>
<time>2009-06-09T11:55:37.000Z</time>
</trkpt>
<trkpt lat="28.140451" lon="-17.307002">
<ele>902.334500</ele>
<time>2009-06-09T11:55:41.000Z</time>
</trkpt>
<trkpt lat="28.140492" lon="-17.307144">
<ele>900.892600</ele>
<time>2009-06-09T11:55:55.000Z</time>
</trkpt>
<trkpt lat="28.140558" lon="-17.307324">
<ele>900.412100</ele>
<time>2009-06-09T11:56:09.000Z</time>
</trkpt>
<trkpt lat="28.140637" lon="-17.307469">
<ele>899.450700</ele>
<time>2009-06-09T11:56:21.000Z</time>
</trkpt>
<trkpt lat="28.140745" lon="-17.307629">
<ele>898.970000</ele>
<time>2009-06-09T11:56:36.000Z</time>
</trkpt>
<trkpt lat="28.140858" lon="-17.307728">
<ele>898.489300</ele>
<time>2009-06-09T11:56:51.000Z</time>
</trkpt>
<trkpt lat="28.141008" lon="-17.307904">
<ele>898.008800</ele>
<time>2009-06-09T11:57:38.000Z</time>
</trkpt>
<trkpt lat="28.140903" lon="-17.308068">
<ele>898.008800</ele>
<time>2009-06-09T11:57:52.000Z</time>
</trkpt>
<trkpt lat="28.140790" lon="-17.308196">
<ele>897.528100</ele>
<time>2009-06-09T11:58:06.000Z</time>
</trkpt>
<trkpt lat="28.140715" lon="-17.308339">
<ele>898.008800</ele>
<time>2009-06-09T11:58:18.000Z</time>
</trkpt>
<trkpt lat="28.140663" lon="-17.308616">
<ele>897.047400</ele>
<time>2009-06-09T11:58:33.000Z</time>
</trkpt>
<trkpt lat="28.140651" lon="-17.308707">
<ele>898.008800</ele>
<time>2009-06-09T11:58:39.000Z</time>
</trkpt>
<trkpt lat="28.140619" lon="-17.308824">
<ele>897.528100</ele>
<time>2009-06-09T11:58:51.000Z</time>
</trkpt>
<trkpt lat="28.140586" lon="-17.309068">
<ele>898.008800</ele>
<time>2009-06-09T11:59:40.000Z</time>
</trkpt>
<trkpt lat="28.140532" lon="-17.309122">
<ele>897.528100</ele>
<time>2009-06-09T11:59:46.000Z</time>
</trkpt>
<trkpt lat="28.140501" lon="-17.309157">
<ele>897.047400</ele>
<time>2009-06-09T11:59:51.000Z</time>
</trkpt>
<trkpt lat="28.140453" lon="-17.309297">
<ele>897.528100</ele>
<time>2009-06-09T12:00:09.000Z</time>
</trkpt>
<trkpt lat="28.140374" lon="-17.309532">
<ele>898.008800</ele>
<time>2009-06-09T12:00:29.000Z</time>
</trkpt>
<trkpt lat="28.140278" lon="-17.309654">
<ele>898.008800</ele>
<time>2009-06-09T12:00:42.000Z</time>
</trkpt>
<trkpt lat="28.140225" lon="-17.309800">
<ele>898.489300</ele>
<time>2009-06-09T12:00:53.000Z</time>
</trkpt>
<trkpt lat="28.140208" lon="-17.309882">
<ele>899.450700</ele>
<time>2009-06-09T12:01:12.000Z</time>
</trkpt>
<trkpt lat="28.140184" lon="-17.309901">
<ele>899.450700</ele>
<time>2009-06-09T12:01:33.000Z</time>
</trkpt>
<trkpt lat="28.140151" lon="-17.309927">
<ele>898.489300</ele>
<time>2009-06-09T12:01:46.000Z</time>
</trkpt>
<trkpt lat="28.140067" lon="-17.310023">
<ele>897.528100</ele>
<time>2009-06-09T12:01:57.000Z</time>
</trkpt>
<trkpt lat="28.140057" lon="-17.310024">
<ele>898.008800</ele>
<time>2009-06-09T12:02:14.000Z</time>
</trkpt>
<trkpt lat="28.139925" lon="-17.309876">
<ele>897.047400</ele>
<time>2009-06-09T12:02:28.000Z</time>
</trkpt>
<trkpt lat="28.139751" lon="-17.309755">
<ele>897.047400</ele>
<time>2009-06-09T12:02:54.000Z</time>
</trkpt>
<trkpt lat="28.139698" lon="-17.309738">
<ele>898.008800</ele>
<time>2009-06-09T12:02:58.000Z</time>
</trkpt>
<trkpt lat="28.139575" lon="-17.309652">
<ele>897.047400</ele>
<time>2009-06-09T12:03:10.000Z</time>
</trkpt>
<trkpt lat="28.139490" lon="-17.309615">
<ele>897.047400</ele>
<time>2009-06-09T12:03:19.000Z</time>
</trkpt>
<trkpt lat="28.139456" lon="-17.309649">
<ele>897.047400</ele>
<time>2009-06-09T12:03:23.000Z</time>
</trkpt>
<trkpt lat="28.139423" lon="-17.309677">
<ele>897.047400</ele>
<time>2009-06-09T12:03:26.000Z</time>
</trkpt>
<trkpt lat="28.139307" lon="-17.309731">
<ele>897.528100</ele>
<time>2009-06-09T12:03:35.000Z</time>
</trkpt>
<trkpt lat="28.139185" lon="-17.309724">
<ele>897.047400</ele>
<time>2009-06-09T12:03:49.000Z</time>
</trkpt>
<trkpt lat="28.139165" lon="-17.309729">
<ele>897.047400</ele>
<time>2009-06-09T12:04:09.000Z</time>
</trkpt>
<trkpt lat="28.139129" lon="-17.309810">
<ele>896.566900</ele>
<time>2009-06-09T12:04:35.000Z</time>
</trkpt>
<trkpt lat="28.139098" lon="-17.309823">
<ele>896.566900</ele>
<time>2009-06-09T12:04:41.000Z</time>
</trkpt>
<trkpt lat="28.138964" lon="-17.309916">
<ele>895.605500</ele>
<time>2009-06-09T12:04:55.000Z</time>
</trkpt>
<trkpt lat="28.138965" lon="-17.309898">
<ele>894.163600</ele>
<time>2009-06-09T12:05:17.000Z</time>
</trkpt>
<trkpt lat="28.138801" lon="-17.309954">
<ele>894.163600</ele>
<time>2009-06-09T12:05:30.000Z</time>
</trkpt>
<trkpt lat="28.138777" lon="-17.309959">
<ele>893.202100</ele>
<time>2009-06-09T12:05:32.000Z</time>
</trkpt>
<trkpt lat="28.138676" lon="-17.309927">
<ele>892.241000</ele>
<time>2009-06-09T12:05:41.000Z</time>
</trkpt>
<trkpt lat="28.138571" lon="-17.309868">
<ele>891.279300</ele>
<time>2009-06-09T12:05:51.000Z</time>
</trkpt>
<trkpt lat="28.138481" lon="-17.309790">
<ele>891.279300</ele>
<time>2009-06-09T12:06:11.000Z</time>
</trkpt>
<trkpt lat="28.138380" lon="-17.309688">
<ele>889.356700</ele>
<time>2009-06-09T12:06:25.000Z</time>
</trkpt>
<trkpt lat="28.138324" lon="-17.309713">
<ele>887.914800</ele>
<time>2009-06-09T12:06:45.000Z</time>
</trkpt>
<trkpt lat="28.138265" lon="-17.309726">
<ele>887.434100</ele>
<time>2009-06-09T12:07:13.000Z</time>
</trkpt>
<trkpt lat="28.138216" lon="-17.309935">
<ele>886.472900</ele>
<time>2009-06-09T12:07:28.000Z</time>
</trkpt>
<trkpt lat="28.138143" lon="-17.310033">
<ele>885.511500</ele>
<time>2009-06-09T12:07:52.000Z</time>
</trkpt>
<trkpt lat="28.138127" lon="-17.310142">
<ele>885.511500</ele>
<time>2009-06-09T12:08:21.000Z</time>
</trkpt>
<trkpt lat="28.138082" lon="-17.310296">
<ele>883.588900</ele>
<time>2009-06-09T12:08:32.000Z</time>
</trkpt>
<trkpt lat="28.137994" lon="-17.310584">
<ele>883.108200</ele>
<time>2009-06-09T12:08:49.000Z</time>
</trkpt>
<trkpt lat="28.137937" lon="-17.310689">
<ele>885.511500</ele>
<time>2009-06-09T12:09:01.000Z</time>
</trkpt>
<trkpt lat="28.137863" lon="-17.310834">
<ele>888.395500</ele>
<time>2009-06-09T12:09:16.000Z</time>
</trkpt>
<trkpt lat="28.137793" lon="-17.310980">
<ele>890.318100</ele>
<time>2009-06-09T12:09:29.000Z</time>
</trkpt>
<trkpt lat="28.137714" lon="-17.311114">
<ele>890.798600</ele>
<time>2009-06-09T12:09:41.000Z</time>
</trkpt>
<trkpt lat="28.137642" lon="-17.311138">
<ele>892.241000</ele>
<time>2009-06-09T12:09:49.000Z</time>
</trkpt>
<trkpt lat="28.137534" lon="-17.311249">
<ele>892.241000</ele>
<time>2009-06-09T12:10:08.000Z</time>
</trkpt>
<trkpt lat="28.137473" lon="-17.311314">
<ele>892.721700</ele>
<time>2009-06-09T12:11:15.000Z</time>
</trkpt>
<trkpt lat="28.137429" lon="-17.311301">
<ele>893.202100</ele>
<time>2009-06-09T12:11:20.000Z</time>
</trkpt>
<trkpt lat="28.137266" lon="-17.311338">
<ele>893.682900</ele>
<time>2009-06-09T12:11:35.000Z</time>
</trkpt>
<trkpt lat="28.137170" lon="-17.311371">
<ele>894.644000</ele>
<time>2009-06-09T12:11:44.000Z</time>
</trkpt>
<trkpt lat="28.137026" lon="-17.311420">
<ele>895.124800</ele>
<time>2009-06-09T12:11:58.000Z</time>
</trkpt>
<trkpt lat="28.136927" lon="-17.311464">
<ele>894.644000</ele>
<time>2009-06-09T12:12:12.000Z</time>
</trkpt>
<trkpt lat="28.136911" lon="-17.311485">
<ele>894.644000</ele>
<time>2009-06-09T12:12:29.000Z</time>
</trkpt>
<trkpt lat="28.136879" lon="-17.311505">
<ele>893.682900</ele>
<time>2009-06-09T12:14:13.000Z</time>
</trkpt>
<trkpt lat="28.136839" lon="-17.311466">
<ele>893.682900</ele>
<time>2009-06-09T12:14:29.000Z</time>
</trkpt>
<trkpt lat="28.136794" lon="-17.311482">
<ele>893.202100</ele>
<time>2009-06-09T12:15:13.000Z</time>
</trkpt>
<trkpt lat="28.136683" lon="-17.311594">
<ele>891.760000</ele>
<time>2009-06-09T12:15:27.000Z</time>
</trkpt>
<trkpt lat="28.136569" lon="-17.311647">
<ele>890.318100</ele>
<time>2009-06-09T12:15:41.000Z</time>
</trkpt>
<trkpt lat="28.136492" lon="-17.311755">
<ele>888.876200</ele>
<time>2009-06-09T12:15:52.000Z</time>
</trkpt>
<trkpt lat="28.136374" lon="-17.311888">
<ele>887.914800</ele>
<time>2009-06-09T12:16:05.000Z</time>
</trkpt>
<trkpt lat="28.136237" lon="-17.312069">
<ele>887.434100</ele>
<time>2009-06-09T12:16:20.000Z</time>
</trkpt>
<trkpt lat="28.136097" lon="-17.312177">
<ele>886.953400</ele>
<time>2009-06-09T12:16:33.000Z</time>
</trkpt>
<trkpt lat="28.135978" lon="-17.312267">
<ele>887.914800</ele>
<time>2009-06-09T12:16:46.000Z</time>
</trkpt>
<trkpt lat="28.135966" lon="-17.312279">
<ele>887.914800</ele>
<time>2009-06-09T12:16:47.000Z</time>
</trkpt>
<trkpt lat="28.135879" lon="-17.312315">
<ele>889.356700</ele>
<time>2009-06-09T12:17:01.000Z</time>
</trkpt>
<trkpt lat="28.135817" lon="-17.312337">
<ele>890.318100</ele>
<time>2009-06-09T12:17:17.000Z</time>
</trkpt>
<trkpt lat="28.135767" lon="-17.312416">
<ele>891.279300</ele>
<time>2009-06-09T12:17:57.000Z</time>
</trkpt>
<trkpt lat="28.135750" lon="-17.312424">
<ele>890.318100</ele>
<time>2009-06-09T12:18:28.000Z</time>
</trkpt>
<trkpt lat="28.135704" lon="-17.312460">
<ele>892.241000</ele>
<time>2009-06-09T12:18:49.000Z</time>
</trkpt>
<trkpt lat="28.135659" lon="-17.312560">
<ele>893.202100</ele>
<time>2009-06-09T12:19:03.000Z</time>
</trkpt>
<trkpt lat="28.135621" lon="-17.312642">
<ele>894.644000</ele>
<time>2009-06-09T12:19:16.000Z</time>
</trkpt>
<trkpt lat="28.135583" lon="-17.312763">
<ele>895.605500</ele>
<time>2009-06-09T12:19:33.000Z</time>
</trkpt>
<trkpt lat="28.135595" lon="-17.312830">
<ele>895.124800</ele>
<time>2009-06-09T12:19:39.000Z</time>
</trkpt>
<trkpt lat="28.135586" lon="-17.312962">
<ele>894.163600</ele>
<time>2009-06-09T12:19:55.000Z</time>
</trkpt>
<trkpt lat="28.135499" lon="-17.313071">
<ele>893.202100</ele>
<time>2009-06-09T12:20:08.000Z</time>
</trkpt>
<trkpt lat="28.135458" lon="-17.313118">
<ele>891.279300</ele>
<time>2009-06-09T12:20:26.000Z</time>
</trkpt>
<trkpt lat="28.135360" lon="-17.313248">
<ele>890.318100</ele>
<time>2009-06-09T12:20:42.000Z</time>
</trkpt>
<trkpt lat="28.135247" lon="-17.313373">
<ele>889.837400</ele>
<time>2009-06-09T12:20:55.000Z</time>
</trkpt>
<trkpt lat="28.135219" lon="-17.313416">
<ele>889.356700</ele>
<time>2009-06-09T12:21:00.000Z</time>
</trkpt>
<trkpt lat="28.135104" lon="-17.313542">
<ele>888.876200</ele>
<time>2009-06-09T12:21:14.000Z</time>
</trkpt>
<trkpt lat="28.134999" lon="-17.313606">
<ele>888.395500</ele>
<time>2009-06-09T12:21:27.000Z</time>
</trkpt>
<trkpt lat="28.134953" lon="-17.313722">
<ele>886.953400</ele>
<time>2009-06-09T12:21:40.000Z</time>
</trkpt>
<trkpt lat="28.134905" lon="-17.313781">
<ele>886.472900</ele>
<time>2009-06-09T12:22:18.000Z</time>
</trkpt>
<trkpt lat="28.134883" lon="-17.313800">
<ele>885.992200</ele>
<time>2009-06-09T12:22:21.000Z</time>
</trkpt>
<trkpt lat="28.134768" lon="-17.313892">
<ele>885.511500</ele>
<time>2009-06-09T12:22:35.000Z</time>
</trkpt>
<trkpt lat="28.134686" lon="-17.314005">
<ele>884.069600</ele>
<time>2009-06-09T12:22:48.000Z</time>
</trkpt>
<trkpt lat="28.134555" lon="-17.314075">
<ele>883.108200</ele>
<time>2009-06-09T12:23:04.000Z</time>
</trkpt>
<trkpt lat="28.134490" lon="-17.314202">
<ele>880.224400</ele>
<time>2009-06-09T12:23:22.000Z</time>
</trkpt>
<trkpt lat="28.134487" lon="-17.314288">
<ele>878.782500</ele>
<time>2009-06-09T12:23:29.000Z</time>
</trkpt>
<trkpt lat="28.134439" lon="-17.314420">
<ele>876.859900</ele>
<time>2009-06-09T12:23:44.000Z</time>
</trkpt>
<trkpt lat="28.134364" lon="-17.314580">
<ele>874.456300</ele>
<time>2009-06-09T12:24:02.000Z</time>
</trkpt>
<trkpt lat="28.134340" lon="-17.314626">
<ele>872.533700</ele>
<time>2009-06-09T12:24:19.000Z</time>
</trkpt>
<trkpt lat="28.134330" lon="-17.314686">
<ele>870.611100</ele>
<time>2009-06-09T12:24:37.000Z</time>
</trkpt>
<trkpt lat="28.134326" lon="-17.314741">
<ele>868.688500</ele>
<time>2009-06-09T12:24:53.000Z</time>
</trkpt>
<trkpt lat="28.134315" lon="-17.314839">
<ele>866.765900</ele>
<time>2009-06-09T12:25:09.000Z</time>
</trkpt>
<trkpt lat="28.134311" lon="-17.314861">
<ele>867.246600</ele>
<time>2009-06-09T12:26:00.000Z</time>
</trkpt>
<trkpt lat="28.134298" lon="-17.314986">
<ele>864.843300</ele>
<time>2009-06-09T12:28:47.000Z</time>
</trkpt>
<trkpt lat="28.134312" lon="-17.315093">
<ele>861.959500</ele>
<time>2009-06-09T12:29:14.000Z</time>
</trkpt>
<trkpt lat="28.134308" lon="-17.315383">
<ele>859.075200</ele>
<time>2009-06-09T12:29:41.000Z</time>
</trkpt>
<trkpt lat="28.134263" lon="-17.315499">
<ele>858.114000</ele>
<time>2009-06-09T12:30:01.000Z</time>
</trkpt>
<trkpt lat="28.134230" lon="-17.315633">
<ele>856.191200</ele>
<time>2009-06-09T12:30:20.000Z</time>
</trkpt>
<trkpt lat="28.134193" lon="-17.315709">
<ele>855.710700</ele>
<time>2009-06-09T12:30:34.000Z</time>
</trkpt>
<trkpt lat="28.134169" lon="-17.315726">
<ele>854.749300</ele>
<time>2009-06-09T12:30:40.000Z</time>
</trkpt>
<trkpt lat="28.134093" lon="-17.315819">
<ele>853.788100</ele>
<time>2009-06-09T12:30:55.000Z</time>
</trkpt>
<trkpt lat="28.134093" lon="-17.315862">
<ele>853.307400</ele>
<time>2009-06-09T12:31:00.000Z</time>
</trkpt>
<trkpt lat="28.134052" lon="-17.315982">
<ele>850.904100</ele>
<time>2009-06-09T12:31:14.000Z</time>
</trkpt>
<trkpt lat="28.133985" lon="-17.316068">
<ele>848.981400</ele>
<time>2009-06-09T12:31:31.000Z</time>
</trkpt>
<trkpt lat="28.133945" lon="-17.316091">
<ele>848.500700</ele>
<time>2009-06-09T12:31:50.000Z</time>
</trkpt>
<trkpt lat="28.133920" lon="-17.316192">
<ele>847.058800</ele>
<time>2009-06-09T12:32:35.000Z</time>
</trkpt>
<trkpt lat="28.133867" lon="-17.316294">
<ele>844.175000</ele>
<time>2009-06-09T12:32:55.000Z</time>
</trkpt>
<trkpt lat="28.133859" lon="-17.316362">
<ele>842.252200</ele>
<time>2009-06-09T12:33:10.000Z</time>
</trkpt>
<trkpt lat="28.133792" lon="-17.316369">
<ele>840.329600</ele>
<time>2009-06-09T12:33:23.000Z</time>
</trkpt>
<trkpt lat="28.133734" lon="-17.316432">
<ele>838.887700</ele>
<time>2009-06-09T12:33:34.000Z</time>
</trkpt>
<trkpt lat="28.133657" lon="-17.316568">
<ele>836.484400</ele>
<time>2009-06-09T12:33:49.000Z</time>
</trkpt>
<trkpt lat="28.133569" lon="-17.316656">
<ele>834.561800</ele>
<time>2009-06-09T12:34:03.000Z</time>
</trkpt>
<trkpt lat="28.133488" lon="-17.316697">
<ele>833.600300</ele>
<time>2009-06-09T12:34:17.000Z</time>
</trkpt>
<trkpt lat="28.133425" lon="-17.316735">
<ele>832.158400</ele>
<time>2009-06-09T12:34:34.000Z</time>
</trkpt>
<trkpt lat="28.133369" lon="-17.316782">
<ele>830.235800</ele>
<time>2009-06-09T12:34:48.000Z</time>
</trkpt>
<trkpt lat="28.133371" lon="-17.316858">
<ele>829.274400</ele>
<time>2009-06-09T12:35:08.000Z</time>
</trkpt>
<trkpt lat="28.133353" lon="-17.316878">
<ele>828.793900</ele>
<time>2009-06-09T12:35:23.000Z</time>
</trkpt>
<trkpt lat="28.133352" lon="-17.316883">
<ele>828.313200</ele>
<time>2009-06-09T12:35:59.000Z</time>
</trkpt>
<trkpt lat="28.133364" lon="-17.316951">
<ele>827.832300</ele>
<time>2009-06-09T12:36:19.000Z</time>
</trkpt>
<trkpt lat="28.133371" lon="-17.317016">
<ele>826.871100</ele>
<time>2009-06-09T12:36:23.000Z</time>
</trkpt>
<trkpt lat="28.133406" lon="-17.317131">
<ele>826.871100</ele>
<time>2009-06-09T12:36:32.000Z</time>
</trkpt>
<trkpt lat="28.133444" lon="-17.317216">
<ele>826.871100</ele>
<time>2009-06-09T12:36:44.000Z</time>
</trkpt>
<trkpt lat="28.133500" lon="-17.317361">
<ele>825.429000</ele>
<time>2009-06-09T12:37:09.000Z</time>
</trkpt>
<trkpt lat="28.133561" lon="-17.317554">
<ele>824.467800</ele>
<time>2009-06-09T12:37:23.000Z</time>
</trkpt>
<trkpt lat="28.133577" lon="-17.317660">
<ele>823.506600</ele>
<time>2009-06-09T12:37:34.000Z</time>
</trkpt>
<trkpt lat="28.133558" lon="-17.317726">
<ele>822.545200</ele>
<time>2009-06-09T12:37:45.000Z</time>
</trkpt>
<trkpt lat="28.133477" lon="-17.317620">
<ele>821.583700</ele>
<time>2009-06-09T12:38:37.000Z</time>
</trkpt>
<trkpt lat="28.133437" lon="-17.317618">
<ele>821.103300</ele>
<time>2009-06-09T12:38:42.000Z</time>
</trkpt>
<trkpt lat="28.133250" lon="-17.317676">
<ele>822.064500</ele>
<time>2009-06-09T12:39:00.000Z</time>
</trkpt>
<trkpt lat="28.133176" lon="-17.317748">
<ele>823.506600</ele>
<time>2009-06-09T12:39:12.000Z</time>
</trkpt>
<trkpt lat="28.133127" lon="-17.317824">
<ele>825.429000</ele>
<time>2009-06-09T12:39:28.000Z</time>
</trkpt>
<trkpt lat="28.133097" lon="-17.317857">
<ele>825.909700</ele>
<time>2009-06-09T12:39:43.000Z</time>
</trkpt>
<trkpt lat="28.133087" lon="-17.317940">
<ele>824.948500</ele>
<time>2009-06-09T12:39:58.000Z</time>
</trkpt>
<trkpt lat="28.133079" lon="-17.317973">
<ele>824.948500</ele>
<time>2009-06-09T12:40:00.000Z</time>
</trkpt>
<trkpt lat="28.133101" lon="-17.318074">
<ele>823.506600</ele>
<time>2009-06-09T12:40:13.000Z</time>
</trkpt>
<trkpt lat="28.133138" lon="-17.318251">
<ele>822.545200</ele>
<time>2009-06-09T12:40:26.000Z</time>
</trkpt>
<trkpt lat="28.133141" lon="-17.318267">
<ele>822.064500</ele>
<time>2009-06-09T12:40:27.000Z</time>
</trkpt>
<trkpt lat="28.133146" lon="-17.318333">
<ele>822.064500</ele>
<time>2009-06-09T12:40:41.000Z</time>
</trkpt>
<trkpt lat="28.133184" lon="-17.318409">
<ele>822.064500</ele>
<time>2009-06-09T12:40:56.000Z</time>
</trkpt>
<trkpt lat="28.133188" lon="-17.318416">
<ele>822.545200</ele>
<time>2009-06-09T12:41:41.000Z</time>
</trkpt>
<trkpt lat="28.133176" lon="-17.318465">
<ele>821.583700</ele>
<time>2009-06-09T12:41:55.000Z</time>
</trkpt>
<trkpt lat="28.133154" lon="-17.318521">
<ele>821.103300</ele>
<time>2009-06-09T12:42:00.000Z</time>
</trkpt>
<trkpt lat="28.133113" lon="-17.318559">
<ele>820.141800</ele>
<time>2009-06-09T12:42:05.000Z</time>
</trkpt>
<trkpt lat="28.133101" lon="-17.318625">
<ele>819.180700</ele>
<time>2009-06-09T12:42:10.000Z</time>
</trkpt>
<trkpt lat="28.133068" lon="-17.318747">
<ele>818.700000</ele>
<time>2009-06-09T12:42:17.000Z</time>
</trkpt>
<trkpt lat="28.133064" lon="-17.319008">
<ele>817.258100</ele>
<time>2009-06-09T12:42:34.000Z</time>
</trkpt>
<trkpt lat="28.133005" lon="-17.319181">
<ele>816.777300</ele>
<time>2009-06-09T12:42:46.000Z</time>
</trkpt>
<trkpt lat="28.132958" lon="-17.319232">
<ele>815.816200</ele>
<time>2009-06-09T12:42:52.000Z</time>
</trkpt>
<trkpt lat="28.132832" lon="-17.319341">
<ele>814.854700</ele>
<time>2009-06-09T12:43:07.000Z</time>
</trkpt>
<trkpt lat="28.132815" lon="-17.319360">
<ele>814.854700</ele>
<time>2009-06-09T12:43:09.000Z</time>
</trkpt>
<trkpt lat="28.132746" lon="-17.319468">
<ele>814.374000</ele>
<time>2009-06-09T12:43:18.000Z</time>
</trkpt>
<trkpt lat="28.132710" lon="-17.319495">
<ele>813.412800</ele>
<time>2009-06-09T12:43:22.000Z</time>
</trkpt>
<trkpt lat="28.132690" lon="-17.319509">
<ele>813.412800</ele>
<time>2009-06-09T12:43:24.000Z</time>
</trkpt>
<trkpt lat="28.132607" lon="-17.319658">
<ele>812.451400</ele>
<time>2009-06-09T12:43:37.000Z</time>
</trkpt>
<trkpt lat="28.132469" lon="-17.319786">
<ele>811.970700</ele>
<time>2009-06-09T12:43:52.000Z</time>
</trkpt>
<trkpt lat="28.132329" lon="-17.319891">
<ele>811.490000</ele>
<time>2009-06-09T12:44:04.000Z</time>
</trkpt>
<trkpt lat="28.132272" lon="-17.319925">
<ele>811.009300</ele>
<time>2009-06-09T12:44:09.000Z</time>
</trkpt>
<trkpt lat="28.132180" lon="-17.320001">
<ele>810.528600</ele>
<time>2009-06-09T12:44:19.000Z</time>
</trkpt>
<trkpt lat="28.132150" lon="-17.320036">
<ele>810.047900</ele>
<time>2009-06-09T12:44:23.000Z</time>
</trkpt>
<trkpt lat="28.132061" lon="-17.320232">
<ele>808.606000</ele>
<time>2009-06-09T12:44:36.000Z</time>
</trkpt>
<trkpt lat="28.132037" lon="-17.320333">
<ele>807.644800</ele>
<time>2009-06-09T12:44:48.000Z</time>
</trkpt>
<trkpt lat="28.132030" lon="-17.320464">
<ele>806.683300</ele>
<time>2009-06-09T12:44:59.000Z</time>
</trkpt>
<trkpt lat="28.132000" lon="-17.320541">
<ele>805.722200</ele>
<time>2009-06-09T12:45:05.000Z</time>
</trkpt>
<trkpt lat="28.132028" lon="-17.320546">
<ele>804.280300</ele>
<time>2009-06-09T12:45:18.000Z</time>
</trkpt>
<trkpt lat="28.132091" lon="-17.320506">
<ele>803.799600</ele>
<time>2009-06-09T12:45:23.000Z</time>
</trkpt>
<trkpt lat="28.132110" lon="-17.320406">
<ele>803.799600</ele>
<time>2009-06-09T12:45:30.000Z</time>
</trkpt>
<trkpt lat="28.132145" lon="-17.320303">
<ele>803.799600</ele>
<time>2009-06-09T12:45:42.000Z</time>
</trkpt>
<trkpt lat="28.132151" lon="-17.320298">
<ele>803.799600</ele>
<time>2009-06-09T12:45:43.000Z</time>
</trkpt>
<trkpt lat="28.132241" lon="-17.320238">
<ele>803.318800</ele>
<time>2009-06-09T12:45:53.000Z</time>
</trkpt>
<trkpt lat="28.132372" lon="-17.320197">
<ele>802.838100</ele>
<time>2009-06-09T12:46:08.000Z</time>
</trkpt>
<trkpt lat="28.132416" lon="-17.320174">
<ele>803.318800</ele>
<time>2009-06-09T12:46:31.000Z</time>
</trkpt>
<trkpt lat="28.132529" lon="-17.320119">
<ele>802.357400</ele>
<time>2009-06-09T12:47:15.000Z</time>
</trkpt>
<trkpt lat="28.132664" lon="-17.320088">
<ele>802.357400</ele>
<time>2009-06-09T12:47:28.000Z</time>
</trkpt>
<trkpt lat="28.132801" lon="-17.320059">
<ele>802.357400</ele>
<time>2009-06-09T12:47:42.000Z</time>
</trkpt>
<trkpt lat="28.133050" lon="-17.320030">
<ele>802.838100</ele>
<time>2009-06-09T12:48:01.000Z</time>
</trkpt>
<trkpt lat="28.133077" lon="-17.320015">
<ele>802.357400</ele>
<time>2009-06-09T12:48:03.000Z</time>
</trkpt>
<trkpt lat="28.133194" lon="-17.319952">
<ele>802.838100</ele>
<time>2009-06-09T12:48:25.000Z</time>
</trkpt>
<trkpt lat="28.133312" lon="-17.319937">
<ele>803.318800</ele>
<time>2009-06-09T12:52:59.000Z</time>
</trkpt>
<trkpt lat="28.133237" lon="-17.319960">
<ele>806.683300</ele>
<time>2009-06-09T13:02:17.000Z</time>
</trkpt>
<trkpt lat="28.133310" lon="-17.319979">
<ele>806.202600</ele>
<time>2009-06-09T13:04:07.000Z</time>
</trkpt>
<trkpt lat="28.133307" lon="-17.320125">
<ele>807.644800</ele>
<time>2009-06-09T13:04:27.000Z</time>
</trkpt>
<trkpt lat="28.133318" lon="-17.320248">
<ele>809.567400</ele>
<time>2009-06-09T13:04:46.000Z</time>
</trkpt>
<trkpt lat="28.133234" lon="-17.320285">
<ele>811.009300</ele>
<time>2009-06-09T13:05:07.000Z</time>
</trkpt>
<trkpt lat="28.133207" lon="-17.320118">
<ele>811.009300</ele>
<time>2009-06-09T13:05:48.000Z</time>
</trkpt>
<trkpt lat="28.133093" lon="-17.320180">
<ele>812.932100</ele>
<time>2009-06-09T13:06:06.000Z</time>
</trkpt>
<trkpt lat="28.133182" lon="-17.320137">
<ele>816.296600</ele>
<time>2009-06-09T13:06:30.000Z</time>
</trkpt>
<trkpt lat="28.133439" lon="-17.320377">
<ele>819.180700</ele>
<time>2009-06-09T13:06:57.000Z</time>
</trkpt>
<trkpt lat="28.133547" lon="-17.320457">
<ele>821.103300</ele>
<time>2009-06-09T13:07:12.000Z</time>
</trkpt>
<trkpt lat="28.133637" lon="-17.320431">
<ele>822.064500</ele>
<time>2009-06-09T13:07:27.000Z</time>
</trkpt>
<trkpt lat="28.133648" lon="-17.320371">
<ele>822.545200</ele>
<time>2009-06-09T13:07:47.000Z</time>
</trkpt>
<trkpt lat="28.133680" lon="-17.320267">
<ele>822.545200</ele>
<time>2009-06-09T13:08:01.000Z</time>
</trkpt>
<trkpt lat="28.133683" lon="-17.320256">
<ele>822.545200</ele>
<time>2009-06-09T13:08:02.000Z</time>
</trkpt>
<trkpt lat="28.133811" lon="-17.320106">
<ele>823.025900</ele>
<time>2009-06-09T13:08:21.000Z</time>
</trkpt>
<trkpt lat="28.133922" lon="-17.320081">
<ele>824.948500</ele>
<time>2009-06-09T13:08:46.000Z</time>
</trkpt>
<trkpt lat="28.133989" lon="-17.320099">
<ele>827.832300</ele>
<time>2009-06-09T13:09:34.000Z</time>
</trkpt>
<trkpt lat="28.134202" lon="-17.320121">
<ele>829.274400</ele>
<time>2009-06-09T13:09:53.000Z</time>
</trkpt>
<trkpt lat="28.134285" lon="-17.320053">
<ele>829.274400</ele>
<time>2009-06-09T13:10:04.000Z</time>
</trkpt>
<trkpt lat="28.134363" lon="-17.319878">
<ele>829.274400</ele>
<time>2009-06-09T13:10:20.000Z</time>
</trkpt>
<trkpt lat="28.134402" lon="-17.319809">
<ele>828.793900</ele>
<time>2009-06-09T13:10:27.000Z</time>
</trkpt>
<trkpt lat="28.134558" lon="-17.319714">
<ele>829.755100</ele>
<time>2009-06-09T13:10:48.000Z</time>
</trkpt>
<trkpt lat="28.134796" lon="-17.319630">
<ele>831.197300</ele>
<time>2009-06-09T13:11:10.000Z</time>
</trkpt>
<trkpt lat="28.134933" lon="-17.319403">
<ele>833.119600</ele>
<time>2009-06-09T13:11:33.000Z</time>
</trkpt>
<trkpt lat="28.134983" lon="-17.319181">
<ele>834.081100</ele>
<time>2009-06-09T13:11:54.000Z</time>
</trkpt>
<trkpt lat="28.134960" lon="-17.319089">
<ele>834.561800</ele>
<time>2009-06-09T13:12:21.000Z</time>
</trkpt>
<trkpt lat="28.134959" lon="-17.319050">
<ele>834.561800</ele>
<time>2009-06-09T13:12:54.000Z</time>
</trkpt>
<trkpt lat="28.135141" lon="-17.318952">
<ele>834.561800</ele>
<time>2009-06-09T13:13:11.000Z</time>
</trkpt>
<trkpt lat="28.135149" lon="-17.318876">
<ele>834.561800</ele>
<time>2009-06-09T13:13:38.000Z</time>
</trkpt>
<trkpt lat="28.135175" lon="-17.318795">
<ele>834.081100</ele>
<time>2009-06-09T13:14:03.000Z</time>
</trkpt>
<trkpt lat="28.135172" lon="-17.318694">
<ele>835.042500</ele>
<time>2009-06-09T13:14:09.000Z</time>
</trkpt>
<trkpt lat="28.135244" lon="-17.318621">
<ele>835.042500</ele>
<time>2009-06-09T13:14:20.000Z</time>
</trkpt>
<trkpt lat="28.135301" lon="-17.318484">
<ele>836.003700</ele>
<time>2009-06-09T13:14:33.000Z</time>
</trkpt>
<trkpt lat="28.135350" lon="-17.318367">
<ele>836.484400</ele>
<time>2009-06-09T13:14:44.000Z</time>
</trkpt>
<trkpt lat="28.135343" lon="-17.318294">
<ele>836.484400</ele>
<time>2009-06-09T13:14:59.000Z</time>
</trkpt>
<trkpt lat="28.135424" lon="-17.318087">
<ele>837.445600</ele>
<time>2009-06-09T13:15:30.000Z</time>
</trkpt>
<trkpt lat="28.135426" lon="-17.317967">
<ele>837.445600</ele>
<time>2009-06-09T13:15:48.000Z</time>
</trkpt>
<trkpt lat="28.135516" lon="-17.317933">
<ele>837.926300</ele>
<time>2009-06-09T13:16:09.000Z</time>
</trkpt>
<trkpt lat="28.135557" lon="-17.317955">
<ele>837.926300</ele>
<time>2009-06-09T13:16:27.000Z</time>
</trkpt>
<trkpt lat="28.135537" lon="-17.317880">
<ele>837.445600</ele>
<time>2009-06-09T13:17:10.000Z</time>
</trkpt>
<trkpt lat="28.135536" lon="-17.317870">
<ele>837.926300</ele>
<time>2009-06-09T13:17:16.000Z</time>
</trkpt>
<trkpt lat="28.135541" lon="-17.317921">
<ele>865.804700</ele>
<time>2009-06-09T13:32:41.000Z</time>
</trkpt>
<trkpt lat="28.135541" lon="-17.317921">
<ele>837.445600</ele>
<time>2009-06-09T13:32:44.000Z</time>
</trkpt>
<trkpt lat="28.135541" lon="-17.317921">
<ele>837.926300</ele>
<time>2009-06-09T13:32:45.000Z</time>
</trkpt>
<trkpt lat="28.138001" lon="-17.315420">
<ele>837.926300</ele>
<time>2009-06-09T13:32:51.000Z</time>
</trkpt>
<trkpt lat="28.135382" lon="-17.317676">
<ele>836.484400</ele>
<time>2009-06-09T13:33:02.000Z</time>
</trkpt>
<trkpt lat="28.135658" lon="-17.317652">
<ele>836.484400</ele>
<time>2009-06-09T13:33:13.000Z</time>
</trkpt>
<trkpt lat="28.135761" lon="-17.317532">
<ele>838.407000</ele>
<time>2009-06-09T13:33:28.000Z</time>
</trkpt>
<trkpt lat="28.135788" lon="-17.317417">
<ele>839.848900</ele>
<time>2009-06-09T13:33:42.000Z</time>
</trkpt>
<trkpt lat="28.135867" lon="-17.317382">
<ele>840.329600</ele>
<time>2009-06-09T13:33:52.000Z</time>
</trkpt>
<trkpt lat="28.135951" lon="-17.317225">
<ele>842.252200</ele>
<time>2009-06-09T13:34:13.000Z</time>
</trkpt>
<trkpt lat="28.135948" lon="-17.317211">
<ele>842.252200</ele>
<time>2009-06-09T13:34:14.000Z</time>
</trkpt>
<trkpt lat="28.136028" lon="-17.316893">
<ele>844.175000</ele>
<time>2009-06-09T13:34:40.000Z</time>
</trkpt>
<trkpt lat="28.136166" lon="-17.316639">
<ele>847.058800</ele>
<time>2009-06-09T13:35:05.000Z</time>
</trkpt>
<trkpt lat="28.136171" lon="-17.316626">
<ele>847.058800</ele>
<time>2009-06-09T13:35:06.000Z</time>
</trkpt>
<trkpt lat="28.136270" lon="-17.316366">
<ele>848.020300</ele>
<time>2009-06-09T13:35:28.000Z</time>
</trkpt>
<trkpt lat="28.136288" lon="-17.316291">
<ele>848.500700</ele>
<time>2009-06-09T13:35:31.000Z</time>
</trkpt>
<trkpt lat="28.136490" lon="-17.316047">
<ele>850.423600</ele>
<time>2009-06-09T13:35:58.000Z</time>
</trkpt>
<trkpt lat="28.136688" lon="-17.315931">
<ele>852.345900</ele>
<time>2009-06-09T13:36:21.000Z</time>
</trkpt>
<trkpt lat="28.136920" lon="-17.315839">
<ele>854.268800</ele>
<time>2009-06-09T13:36:46.000Z</time>
</trkpt>
<trkpt lat="28.137207" lon="-17.315742">
<ele>855.710700</ele>
<time>2009-06-09T13:37:11.000Z</time>
</trkpt>
<trkpt lat="28.137412" lon="-17.315630">
<ele>857.152600</ele>
<time>2009-06-09T13:37:31.000Z</time>
</trkpt>
<trkpt lat="28.137551" lon="-17.315610">
<ele>856.671900</ele>
<time>2009-06-09T13:37:42.000Z</time>
</trkpt>
<trkpt lat="28.137600" lon="-17.315591">
<ele>857.152600</ele>
<time>2009-06-09T13:37:46.000Z</time>
</trkpt>
<trkpt lat="28.137876" lon="-17.315449">
<ele>859.075200</ele>
<time>2009-06-09T13:38:09.000Z</time>
</trkpt>
<trkpt lat="28.137913" lon="-17.315339">
<ele>860.036600</ele>
<time>2009-06-09T13:38:19.000Z</time>
</trkpt>
<trkpt lat="28.137914" lon="-17.315245">
<ele>859.075200</ele>
<time>2009-06-09T13:38:24.000Z</time>
</trkpt>
<trkpt lat="28.138056" lon="-17.315003">
<ele>860.036600</ele>
<time>2009-06-09T13:38:43.000Z</time>
</trkpt>
<trkpt lat="28.138203" lon="-17.314847">
<ele>861.959500</ele>
<time>2009-06-09T13:39:01.000Z</time>
</trkpt>
<trkpt lat="28.138223" lon="-17.314830">
<ele>861.959500</ele>
<time>2009-06-09T13:39:04.000Z</time>
</trkpt>
<trkpt lat="28.138277" lon="-17.314797">
<ele>862.920700</ele>
<time>2009-06-09T13:39:09.000Z</time>
</trkpt>
<trkpt lat="28.138407" lon="-17.314630">
<ele>863.881800</ele>
<time>2009-06-09T13:39:25.000Z</time>
</trkpt>
<trkpt lat="28.138431" lon="-17.314607">
<ele>863.881800</ele>
<time>2009-06-09T13:39:28.000Z</time>
</trkpt>
<trkpt lat="28.138441" lon="-17.314558">
<ele>864.362500</ele>
<time>2009-06-09T13:39:32.000Z</time>
</trkpt>
<trkpt lat="28.138584" lon="-17.314437">
<ele>864.362500</ele>
<time>2009-06-09T13:39:47.000Z</time>
</trkpt>
<trkpt lat="28.138663" lon="-17.314323">
<ele>865.324000</ele>
<time>2009-06-09T13:40:00.000Z</time>
</trkpt>
<trkpt lat="28.138810" lon="-17.314130">
<ele>867.246600</ele>
<time>2009-06-09T13:40:20.000Z</time>
</trkpt>
<trkpt lat="28.138852" lon="-17.314095">
<ele>867.246600</ele>
<time>2009-06-09T13:40:38.000Z</time>
</trkpt>
<trkpt lat="28.139034" lon="-17.313926">
<ele>868.207800</ele>
<time>2009-06-09T13:40:58.000Z</time>
</trkpt>
<trkpt lat="28.139140" lon="-17.313857">
<ele>869.169200</ele>
<time>2009-06-09T13:41:09.000Z</time>
</trkpt>
<trkpt lat="28.139159" lon="-17.313837">
<ele>869.169200</ele>
<time>2009-06-09T13:41:11.000Z</time>
</trkpt>
<trkpt lat="28.139241" lon="-17.313756">
<ele>870.130400</ele>
<time>2009-06-09T13:41:21.000Z</time>
</trkpt>
<trkpt lat="28.139330" lon="-17.313654">
<ele>870.611100</ele>
<time>2009-06-09T13:41:32.000Z</time>
</trkpt>
<trkpt lat="28.139427" lon="-17.313559">
<ele>872.533700</ele>
<time>2009-06-09T13:41:46.000Z</time>
</trkpt>
<trkpt lat="28.139506" lon="-17.313443">
<ele>872.533700</ele>
<time>2009-06-09T13:42:01.000Z</time>
</trkpt>
<trkpt lat="28.139643" lon="-17.313321">
<ele>874.456300</ele>
<time>2009-06-09T13:42:19.000Z</time>
</trkpt>
<trkpt lat="28.139690" lon="-17.313254">
<ele>874.456300</ele>
<time>2009-06-09T13:42:26.000Z</time>
</trkpt>
<trkpt lat="28.139833" lon="-17.313130">
<ele>876.859900</ele>
<time>2009-06-09T13:42:48.000Z</time>
</trkpt>
<trkpt lat="28.139952" lon="-17.312960">
<ele>878.301800</ele>
<time>2009-06-09T13:43:07.000Z</time>
</trkpt>
<trkpt lat="28.139997" lon="-17.312718">
<ele>879.743700</ele>
<time>2009-06-09T13:43:28.000Z</time>
</trkpt>
<trkpt lat="28.139964" lon="-17.312329">
<ele>882.147000</ele>
<time>2009-06-09T13:43:51.000Z</time>
</trkpt>
<trkpt lat="28.139972" lon="-17.312250">
<ele>883.108200</ele>
<time>2009-06-09T13:44:15.000Z</time>
</trkpt>
<trkpt lat="28.139977" lon="-17.312146">
<ele>883.108200</ele>
<time>2009-06-09T13:44:32.000Z</time>
</trkpt>
<trkpt lat="28.140015" lon="-17.311994">
<ele>883.588900</ele>
<time>2009-06-09T13:44:50.000Z</time>
</trkpt>
<trkpt lat="28.139969" lon="-17.311766">
<ele>884.069600</ele>
<time>2009-06-09T13:45:12.000Z</time>
</trkpt>
<trkpt lat="28.139938" lon="-17.311525">
<ele>884.069600</ele>
<time>2009-06-09T13:45:34.000Z</time>
</trkpt>
<trkpt lat="28.139988" lon="-17.311311">
<ele>882.627700</ele>
<time>2009-06-09T13:45:50.000Z</time>
</trkpt>
<trkpt lat="28.140038" lon="-17.311159">
<ele>883.108200</ele>
<time>2009-06-09T13:46:04.000Z</time>
</trkpt>
<trkpt lat="28.140063" lon="-17.310999">
<ele>884.069600</ele>
<time>2009-06-09T13:46:18.000Z</time>
</trkpt>
<trkpt lat="28.140064" lon="-17.310925">
<ele>884.550300</ele>
<time>2009-06-09T13:46:24.000Z</time>
</trkpt>
<trkpt lat="28.140024" lon="-17.310652">
<ele>885.992200</ele>
<time>2009-06-09T13:46:42.000Z</time>
</trkpt>
<trkpt lat="28.140010" lon="-17.310598">
<ele>886.472900</ele>
<time>2009-06-09T13:46:45.000Z</time>
</trkpt>
<trkpt lat="28.140000" lon="-17.310567">
<ele>886.472900</ele>
<time>2009-06-09T13:46:47.000Z</time>
</trkpt>
<trkpt lat="28.140019" lon="-17.310485">
<ele>886.472900</ele>
<time>2009-06-09T13:47:02.000Z</time>
</trkpt>
<trkpt lat="28.140118" lon="-17.310324">
<ele>884.550300</ele>
<time>2009-06-09T13:47:24.000Z</time>
</trkpt>
<trkpt lat="28.140243" lon="-17.309982">
<ele>883.108200</ele>
<time>2009-06-09T13:47:48.000Z</time>
</trkpt>
<trkpt lat="28.140335" lon="-17.309633">
<ele>882.627700</ele>
<time>2009-06-09T13:48:08.000Z</time>
</trkpt>
<trkpt lat="28.140364" lon="-17.309520">
<ele>883.108200</ele>
<time>2009-06-09T13:48:15.000Z</time>
</trkpt>
<trkpt lat="28.140400" lon="-17.309443">
<ele>882.147000</ele>
<time>2009-06-09T13:48:21.000Z</time>
</trkpt>
<trkpt lat="28.140491" lon="-17.309250">
<ele>882.147000</ele>
<time>2009-06-09T13:48:36.000Z</time>
</trkpt>
<trkpt lat="28.140553" lon="-17.309174">
<ele>881.666300</ele>
<time>2009-06-09T13:48:43.000Z</time>
</trkpt>
<trkpt lat="28.140593" lon="-17.309106">
<ele>882.147000</ele>
<time>2009-06-09T13:48:50.000Z</time>
</trkpt>
<trkpt lat="28.140660" lon="-17.308949">
<ele>881.666300</ele>
<time>2009-06-09T13:49:02.000Z</time>
</trkpt>
<trkpt lat="28.140634" lon="-17.308905">
<ele>884.069600</ele>
<time>2009-06-09T13:49:04.000Z</time>
</trkpt>
<trkpt lat="28.140697" lon="-17.308769">
<ele>881.185800</ele>
<time>2009-06-09T13:49:16.000Z</time>
</trkpt>
<trkpt lat="28.140753" lon="-17.308566">
<ele>882.627700</ele>
<time>2009-06-09T13:49:32.000Z</time>
</trkpt>
<trkpt lat="28.140817" lon="-17.308270">
<ele>882.627700</ele>
<time>2009-06-09T13:49:52.000Z</time>
</trkpt>
<trkpt lat="28.140913" lon="-17.308096">
<ele>883.108200</ele>
<time>2009-06-09T13:50:06.000Z</time>
</trkpt>
<trkpt lat="28.140994" lon="-17.307977">
<ele>883.108200</ele>
<time>2009-06-09T13:50:20.000Z</time>
</trkpt>
<trkpt lat="28.141044" lon="-17.307821">
<ele>883.108200</ele>
<time>2009-06-09T13:50:37.000Z</time>
</trkpt>
<trkpt lat="28.141002" lon="-17.307770">
<ele>883.108200</ele>
<time>2009-06-09T13:50:42.000Z</time>
</trkpt>
<trkpt lat="28.140769" lon="-17.307583">
<ele>883.588900</ele>
<time>2009-06-09T13:51:03.000Z</time>
</trkpt>
<trkpt lat="28.140720" lon="-17.307501">
<ele>884.069600</ele>
<time>2009-06-09T13:51:11.000Z</time>
</trkpt>
<trkpt lat="28.140641" lon="-17.307381">
<ele>884.550300</ele>
<time>2009-06-09T13:51:24.000Z</time>
</trkpt>
<trkpt lat="28.140552" lon="-17.307144">
<ele>885.992200</ele>
<time>2009-06-09T13:51:45.000Z</time>
</trkpt>
<trkpt lat="28.140519" lon="-17.306965">
<ele>886.953400</ele>
<time>2009-06-09T13:52:02.000Z</time>
</trkpt>
<trkpt lat="28.140490" lon="-17.306762">
<ele>887.914800</ele>
<time>2009-06-09T13:52:16.000Z</time>
</trkpt>
<trkpt lat="28.140448" lon="-17.306611">
<ele>890.318100</ele>
<time>2009-06-09T13:52:31.000Z</time>
</trkpt>
<trkpt lat="28.140344" lon="-17.306436">
<ele>892.721700</ele>
<time>2009-06-09T13:52:48.000Z</time>
</trkpt>
<trkpt lat="28.140284" lon="-17.306390">
<ele>892.721700</ele>
<time>2009-06-09T13:53:06.000Z</time>
</trkpt>
<trkpt lat="28.140200" lon="-17.306310">
<ele>894.644000</ele>
<time>2009-06-09T13:53:15.000Z</time>
</trkpt>
<trkpt lat="28.140193" lon="-17.306297">
<ele>894.644000</ele>
<time>2009-06-09T13:53:18.000Z</time>
</trkpt>
<trkpt lat="28.140079" lon="-17.306169">
<ele>896.566900</ele>
<time>2009-06-09T13:53:34.000Z</time>
</trkpt>
<trkpt lat="28.139948" lon="-17.305987">
<ele>897.047400</ele>
<time>2009-06-09T13:53:50.000Z</time>
</trkpt>
<trkpt lat="28.139750" lon="-17.305867">
<ele>898.489300</ele>
<time>2009-06-09T13:54:08.000Z</time>
</trkpt>
<trkpt lat="28.139741" lon="-17.305859">
<ele>898.489300</ele>
<time>2009-06-09T13:54:09.000Z</time>
</trkpt>
<trkpt lat="28.139644" lon="-17.305778">
<ele>898.489300</ele>
<time>2009-06-09T13:54:19.000Z</time>
</trkpt>
<trkpt lat="28.139631" lon="-17.305761">
<ele>898.970000</ele>
<time>2009-06-09T13:54:22.000Z</time>
</trkpt>
<trkpt lat="28.139545" lon="-17.305734">
<ele>898.970000</ele>
<time>2009-06-09T13:54:29.000Z</time>
</trkpt>
<trkpt lat="28.139497" lon="-17.305709">
<ele>898.489300</ele>
<time>2009-06-09T13:54:33.000Z</time>
</trkpt>
<trkpt lat="28.139355" lon="-17.305571">
<ele>898.008800</ele>
<time>2009-06-09T13:54:52.000Z</time>
</trkpt>
<trkpt lat="28.139351" lon="-17.305526">
<ele>896.566900</ele>
<time>2009-06-09T13:54:56.000Z</time>
</trkpt>
<trkpt lat="28.139276" lon="-17.305250">
<ele>897.047400</ele>
<time>2009-06-09T13:55:12.000Z</time>
</trkpt>
<trkpt lat="28.139285" lon="-17.305144">
<ele>897.047400</ele>
<time>2009-06-09T13:55:19.000Z</time>
</trkpt>
<trkpt lat="28.139291" lon="-17.304914">
<ele>896.566900</ele>
<time>2009-06-09T13:55:37.000Z</time>
</trkpt>
<trkpt lat="28.139316" lon="-17.304846">
<ele>898.008800</ele>
<time>2009-06-09T13:55:54.000Z</time>
</trkpt>
<trkpt lat="28.139321" lon="-17.304806">
<ele>898.008800</ele>
<time>2009-06-09T13:56:01.000Z</time>
</trkpt>
<trkpt lat="28.139285" lon="-17.304559">
<ele>897.528100</ele>
<time>2009-06-09T13:56:20.000Z</time>
</trkpt>
<trkpt lat="28.139273" lon="-17.304534">
<ele>897.528100</ele>
<time>2009-06-09T13:56:22.000Z</time>
</trkpt>
<trkpt lat="28.139217" lon="-17.304443">
<ele>897.528100</ele>
<time>2009-06-09T13:56:35.000Z</time>
</trkpt>
<trkpt lat="28.139194" lon="-17.304402">
<ele>897.047400</ele>
<time>2009-06-09T13:56:41.000Z</time>
</trkpt>
<trkpt lat="28.139077" lon="-17.304281">
<ele>898.008800</ele>
<time>2009-06-09T13:56:55.000Z</time>
</trkpt>
<trkpt lat="28.139052" lon="-17.304262">
<ele>898.008800</ele>
<time>2009-06-09T13:56:58.000Z</time>
</trkpt>
<trkpt lat="28.139035" lon="-17.304245">
<ele>898.008800</ele>
<time>2009-06-09T13:57:00.000Z</time>
</trkpt>
<trkpt lat="28.139001" lon="-17.304196">
<ele>899.450700</ele>
<time>2009-06-09T13:57:21.000Z</time>
</trkpt>
<trkpt lat="28.138910" lon="-17.304123">
<ele>899.450700</ele>
<time>2009-06-09T13:59:26.000Z</time>
</trkpt>
<trkpt lat="28.138863" lon="-17.304036">
<ele>898.970000</ele>
<time>2009-06-09T13:59:33.000Z</time>
</trkpt>
<trkpt lat="28.138705" lon="-17.303910">
<ele>899.450700</ele>
<time>2009-06-09T13:59:50.000Z</time>
</trkpt>
<trkpt lat="28.138672" lon="-17.303925">
<ele>898.970000</ele>
<time>2009-06-09T14:00:12.000Z</time>
</trkpt>
<trkpt lat="28.138617" lon="-17.303882">
<ele>898.489300</ele>
<time>2009-06-09T14:00:27.000Z</time>
</trkpt>
<trkpt lat="28.138598" lon="-17.303874">
<ele>899.931400</ele>
<time>2009-06-09T14:00:29.000Z</time>
</trkpt>
<trkpt lat="28.138590" lon="-17.303868">
<ele>901.373300</ele>
<time>2009-06-09T14:00:30.000Z</time>
</trkpt>
<trkpt lat="28.138557" lon="-17.303845">
<ele>901.373300</ele>
<time>2009-06-09T14:00:33.000Z</time>
</trkpt>
<trkpt lat="28.138525" lon="-17.303806">
<ele>901.373300</ele>
<time>2009-06-09T14:00:37.000Z</time>
</trkpt>
<trkpt lat="28.138358" lon="-17.303751">
<ele>902.815200</ele>
<time>2009-06-09T14:00:49.000Z</time>
</trkpt>
<trkpt lat="28.138300" lon="-17.303677">
<ele>902.815200</ele>
<time>2009-06-09T14:00:57.000Z</time>
</trkpt>
<trkpt lat="28.138269" lon="-17.303644">
<ele>903.295900</ele>
<time>2009-06-09T14:01:01.000Z</time>
</trkpt>
<trkpt lat="28.138103" lon="-17.303482">
<ele>903.776600</ele>
<time>2009-06-09T14:01:19.000Z</time>
</trkpt>
<trkpt lat="28.137972" lon="-17.303405">
<ele>904.257300</ele>
<time>2009-06-09T14:01:32.000Z</time>
</trkpt>
<trkpt lat="28.137940" lon="-17.303366">
<ele>904.737800</ele>
<time>2009-06-09T14:01:49.000Z</time>
</trkpt>
<trkpt lat="28.137924" lon="-17.303342">
<ele>904.257300</ele>
<time>2009-06-09T14:01:59.000Z</time>
</trkpt>
<trkpt lat="28.137840" lon="-17.303238">
<ele>902.815200</ele>
<time>2009-06-09T14:02:15.000Z</time>
</trkpt>
<trkpt lat="28.137773" lon="-17.303196">
<ele>905.218500</ele>
<time>2009-06-09T14:02:38.000Z</time>
</trkpt>
<trkpt lat="28.137710" lon="-17.303116">
<ele>908.583300</ele>
<time>2009-06-09T14:03:00.000Z</time>
</trkpt>
<trkpt lat="28.137711" lon="-17.302971">
<ele>911.467300</ele>
<time>2009-06-09T14:03:23.000Z</time>
</trkpt>
<trkpt lat="28.137676" lon="-17.302921">
<ele>913.389900</ele>
<time>2009-06-09T14:03:40.000Z</time>
</trkpt>
<trkpt lat="28.137595" lon="-17.302733">
<ele>915.793200</ele>
<time>2009-06-09T14:04:14.000Z</time>
</trkpt>
<trkpt lat="28.137555" lon="-17.302658">
<ele>918.196300</ele>
<time>2009-06-09T14:04:45.000Z</time>
</trkpt>
<trkpt lat="28.137507" lon="-17.302590">
<ele>921.080300</ele>
<time>2009-06-09T14:05:06.000Z</time>
</trkpt>
<trkpt lat="28.137460" lon="-17.302500">
<ele>924.445100</ele>
<time>2009-06-09T14:05:34.000Z</time>
</trkpt>
<trkpt lat="28.137378" lon="-17.302350">
<ele>926.367700</ele>
<time>2009-06-09T14:06:02.000Z</time>
</trkpt>
<trkpt lat="28.137388" lon="-17.302251">
<ele>929.251500</ele>
<time>2009-06-09T14:06:26.000Z</time>
</trkpt>
<trkpt lat="28.137357" lon="-17.302144">
<ele>931.654800</ele>
<time>2009-06-09T14:06:47.000Z</time>
</trkpt>
<trkpt lat="28.137335" lon="-17.302169">
<ele>933.096700</ele>
<time>2009-06-09T14:07:02.000Z</time>
</trkpt>
<trkpt lat="28.137281" lon="-17.302222">
<ele>936.461400</ele>
<time>2009-06-09T14:07:45.000Z</time>
</trkpt>
<trkpt lat="28.137177" lon="-17.302125">
<ele>939.345200</ele>
<time>2009-06-09T14:08:10.000Z</time>
</trkpt>
<trkpt lat="28.137112" lon="-17.302089">
<ele>940.787400</ele>
<time>2009-06-09T14:08:27.000Z</time>
</trkpt>
<trkpt lat="28.137039" lon="-17.302047">
<ele>943.190700</ele>
<time>2009-06-09T14:08:44.000Z</time>
</trkpt>
<trkpt lat="28.136965" lon="-17.302030">
<ele>945.113300</ele>
<time>2009-06-09T14:09:02.000Z</time>
</trkpt>
<trkpt lat="28.136912" lon="-17.301960">
<ele>946.555400</ele>
<time>2009-06-09T14:09:17.000Z</time>
</trkpt>
<trkpt lat="28.136808" lon="-17.301856">
<ele>949.439200</ele>
<time>2009-06-09T14:09:54.000Z</time>
</trkpt>
<trkpt lat="28.136742" lon="-17.301797">
<ele>952.803700</ele>
<time>2009-06-09T14:10:28.000Z</time>
</trkpt>
<trkpt lat="28.136688" lon="-17.301649">
<ele>954.726300</ele>
<time>2009-06-09T14:10:52.000Z</time>
</trkpt>
<trkpt lat="28.136515" lon="-17.301556">
<ele>956.649200</ele>
<time>2009-06-09T14:11:25.000Z</time>
</trkpt>
<trkpt lat="28.136354" lon="-17.301311">
<ele>960.013700</ele>
<time>2009-06-09T14:11:55.000Z</time>
</trkpt>
<trkpt lat="28.136492" lon="-17.301134">
<ele>962.897700</ele>
<time>2009-06-09T14:12:27.000Z</time>
</trkpt>
<trkpt lat="28.136433" lon="-17.301027">
<ele>964.820300</ele>
<time>2009-06-09T14:13:04.000Z</time>
</trkpt>
<trkpt lat="28.136426" lon="-17.300906">
<ele>968.665500</ele>
<time>2009-06-09T14:14:08.000Z</time>
</trkpt>
<trkpt lat="28.136372" lon="-17.300761">
<ele>969.627000</ele>
<time>2009-06-09T14:14:37.000Z</time>
</trkpt>
<trkpt lat="28.136241" lon="-17.300531">
<ele>969.627000</ele>
<time>2009-06-09T14:15:21.000Z</time>
</trkpt>
<trkpt lat="28.136070" lon="-17.300276">
<ele>970.588100</ele>
<time>2009-06-09T14:17:11.000Z</time>
</trkpt>
<trkpt lat="28.136034" lon="-17.300190">
<ele>972.511000</ele>
<time>2009-06-09T14:17:26.000Z</time>
</trkpt>
<trkpt lat="28.135939" lon="-17.300059">
<ele>974.433600</ele>
<time>2009-06-09T14:17:46.000Z</time>
</trkpt>
<trkpt lat="28.135853" lon="-17.299906">
<ele>976.836900</ele>
<time>2009-06-09T14:17:59.000Z</time>
</trkpt>
<trkpt lat="28.135818" lon="-17.299869">
<ele>979.240000</ele>
<time>2009-06-09T14:18:15.000Z</time>
</trkpt>
<trkpt lat="28.135763" lon="-17.299793">
<ele>981.643300</ele>
<time>2009-06-09T14:18:32.000Z</time>
</trkpt>
<trkpt lat="28.135679" lon="-17.299620">
<ele>983.085200</ele>
<time>2009-06-09T14:18:48.000Z</time>
</trkpt>
<trkpt lat="28.135652" lon="-17.299598">
<ele>984.046600</ele>
<time>2009-06-09T14:19:04.000Z</time>
</trkpt>
<trkpt lat="28.135641" lon="-17.299588">
<ele>983.565900</ele>
<time>2009-06-09T14:19:29.000Z</time>
</trkpt>
<trkpt lat="28.135643" lon="-17.299551">
<ele>982.604700</ele>
<time>2009-06-09T14:19:47.000Z</time>
</trkpt>
<trkpt lat="28.135627" lon="-17.299415">
<ele>981.643300</ele>
<time>2009-06-09T14:19:58.000Z</time>
</trkpt>
<trkpt lat="28.135615" lon="-17.299244">
<ele>982.124000</ele>
<time>2009-06-09T14:20:13.000Z</time>
</trkpt>
<trkpt lat="28.135620" lon="-17.299129">
<ele>981.643300</ele>
<time>2009-06-09T14:20:29.000Z</time>
</trkpt>
<trkpt lat="28.135635" lon="-17.299060">
<ele>982.604700</ele>
<time>2009-06-09T14:20:45.000Z</time>
</trkpt>
<trkpt lat="28.135647" lon="-17.299032">
<ele>981.643300</ele>
<time>2009-06-09T14:20:59.000Z</time>
</trkpt>
<trkpt lat="28.135655" lon="-17.299022">
<ele>982.604700</ele>
<time>2009-06-09T14:21:11.000Z</time>
</trkpt>
<trkpt lat="28.135639" lon="-17.299061">
<ele>982.604700</ele>
<time>2009-06-09T14:21:33.000Z</time>
</trkpt>
<trkpt lat="28.135640" lon="-17.299058">
<ele>983.085200</ele>
<time>2009-06-09T14:22:25.000Z</time>
</trkpt>
<trkpt lat="28.135666" lon="-17.298839">
<ele>982.604700</ele>
<time>2009-06-09T14:22:40.000Z</time>
</trkpt>
<trkpt lat="28.135684" lon="-17.298799">
<ele>982.604700</ele>
<time>2009-06-09T14:22:45.000Z</time>
</trkpt>
<trkpt lat="28.135717" lon="-17.298595">
<ele>982.604700</ele>
<time>2009-06-09T14:23:00.000Z</time>
</trkpt>
<trkpt lat="28.135696" lon="-17.298411">
<ele>983.085200</ele>
<time>2009-06-09T14:23:14.000Z</time>
</trkpt>
<trkpt lat="28.135687" lon="-17.298373">
<ele>983.565900</ele>
<time>2009-06-09T14:23:17.000Z</time>
</trkpt>
<trkpt lat="28.135639" lon="-17.298230">
<ele>982.604700</ele>
<time>2009-06-09T14:23:32.000Z</time>
</trkpt>
<trkpt lat="28.135607" lon="-17.298081">
<ele>983.085200</ele>
<time>2009-06-09T14:23:47.000Z</time>
</trkpt>
<trkpt lat="28.135590" lon="-17.297919">
<ele>982.124000</ele>
<time>2009-06-09T14:24:01.000Z</time>
</trkpt>
<trkpt lat="28.135566" lon="-17.297638">
<ele>983.565900</ele>
<time>2009-06-09T14:24:18.000Z</time>
</trkpt>
<trkpt lat="28.135572" lon="-17.297471">
<ele>985.969200</ele>
<time>2009-06-09T14:24:33.000Z</time>
</trkpt>
<trkpt lat="28.135545" lon="-17.297336">
<ele>987.891800</ele>
<time>2009-06-09T14:24:45.000Z</time>
</trkpt>
<trkpt lat="28.135546" lon="-17.297328">
<ele>987.891800</ele>
<time>2009-06-09T14:24:46.000Z</time>
</trkpt>
<trkpt lat="28.135506" lon="-17.297180">
<ele>990.295400</ele>
<time>2009-06-09T14:25:03.000Z</time>
</trkpt>
<trkpt lat="28.135485" lon="-17.297105">
<ele>991.737300</ele>
<time>2009-06-09T14:25:11.000Z</time>
</trkpt>
<trkpt lat="28.135466" lon="-17.297027">
<ele>991.737300</ele>
<time>2009-06-09T14:25:17.000Z</time>
</trkpt>
<trkpt lat="28.135468" lon="-17.296846">
<ele>992.698700</ele>
<time>2009-06-09T14:25:33.000Z</time>
</trkpt>
<trkpt lat="28.135485" lon="-17.296625">
<ele>993.179200</ele>
<time>2009-06-09T14:25:50.000Z</time>
</trkpt>
<trkpt lat="28.135503" lon="-17.296444">
<ele>993.659900</ele>
<time>2009-06-09T14:25:59.000Z</time>
</trkpt>
<trkpt lat="28.135475" lon="-17.296275">
<ele>993.659900</ele>
<time>2009-06-09T14:26:12.000Z</time>
</trkpt>
<trkpt lat="28.135421" lon="-17.296214">
<ele>993.179200</ele>
<time>2009-06-09T14:26:19.000Z</time>
</trkpt>
<trkpt lat="28.135292" lon="-17.296088">
<ele>994.621100</ele>
<time>2009-06-09T14:26:33.000Z</time>
</trkpt>
<trkpt lat="28.135185" lon="-17.295954">
<ele>996.063200</ele>
<time>2009-06-09T14:26:48.000Z</time>
</trkpt>
<trkpt lat="28.135048" lon="-17.295782">
<ele>997.985800</ele>
<time>2009-06-09T14:27:08.000Z</time>
</trkpt>
<trkpt lat="28.135040" lon="-17.295775">
<ele>997.985800</ele>
<time>2009-06-09T14:27:09.000Z</time>
</trkpt>
<trkpt lat="28.134934" lon="-17.295609">
<ele>1000.389000</ele>
<time>2009-06-09T14:27:24.000Z</time>
</trkpt>
<trkpt lat="28.134840" lon="-17.295478">
<ele>1001.831000</ele>
<time>2009-06-09T14:27:37.000Z</time>
</trkpt>
<trkpt lat="28.134763" lon="-17.295399">
<ele>1003.754000</ele>
<time>2009-06-09T14:27:49.000Z</time>
</trkpt>
<trkpt lat="28.134663" lon="-17.295325">
<ele>1005.196000</ele>
<time>2009-06-09T14:27:58.000Z</time>
</trkpt>
<trkpt lat="28.134579" lon="-17.295262">
<ele>1005.677000</ele>
<time>2009-06-09T14:28:07.000Z</time>
</trkpt>
<trkpt lat="28.134444" lon="-17.295260">
<ele>1005.196000</ele>
<time>2009-06-09T14:28:17.000Z</time>
</trkpt>
<trkpt lat="28.134345" lon="-17.295277">
<ele>1004.715000</ele>
<time>2009-06-09T14:28:26.000Z</time>
</trkpt>
<trkpt lat="28.134217" lon="-17.295265">
<ele>1002.792000</ele>
<time>2009-06-09T14:28:40.000Z</time>
</trkpt>
<trkpt lat="28.134136" lon="-17.295197">
<ele>1001.350000</ele>
<time>2009-06-09T14:28:50.000Z</time>
</trkpt>
<trkpt lat="28.134052" lon="-17.295173">
<ele>999.908400</ele>
<time>2009-06-09T14:28:59.000Z</time>
</trkpt>
<trkpt lat="28.134025" lon="-17.295149">
<ele>999.908400</ele>
<time>2009-06-09T14:29:02.000Z</time>
</trkpt>
<trkpt lat="28.133922" lon="-17.295084">
<ele>997.024400</ele>
<time>2009-06-09T14:29:16.000Z</time>
</trkpt>
<trkpt lat="28.133824" lon="-17.295036">
<ele>995.582500</ele>
<time>2009-06-09T14:29:27.000Z</time>
</trkpt>
<trkpt lat="28.133730" lon="-17.294985">
<ele>994.621100</ele>
<time>2009-06-09T14:29:37.000Z</time>
</trkpt>
<trkpt lat="28.133545" lon="-17.294939">
<ele>993.179200</ele>
<time>2009-06-09T14:29:53.000Z</time>
</trkpt>
<trkpt lat="28.133477" lon="-17.294900">
<ele>991.737300</ele>
<time>2009-06-09T14:30:01.000Z</time>
</trkpt>
<trkpt lat="28.133425" lon="-17.294848">
<ele>990.775900</ele>
<time>2009-06-09T14:30:08.000Z</time>
</trkpt>
<trkpt lat="28.133239" lon="-17.294730">
<ele>988.853500</ele>
<time>2009-06-09T14:30:27.000Z</time>
</trkpt>
<trkpt lat="28.133101" lon="-17.294673">
<ele>987.891800</ele>
<time>2009-06-09T14:30:41.000Z</time>
</trkpt>
<trkpt lat="28.133027" lon="-17.294619">
<ele>988.372800</ele>
<time>2009-06-09T14:30:57.000Z</time>
</trkpt>
<trkpt lat="28.133012" lon="-17.294628">
<ele>987.891800</ele>
<time>2009-06-09T14:31:11.000Z</time>
</trkpt>
<trkpt lat="28.132960" lon="-17.294559">
<ele>987.891800</ele>
<time>2009-06-09T14:31:23.000Z</time>
</trkpt>
<trkpt lat="28.132950" lon="-17.294553">
<ele>988.372800</ele>
<time>2009-06-09T14:31:24.000Z</time>
</trkpt>
<trkpt lat="28.132921" lon="-17.294504">
<ele>987.891800</ele>
<time>2009-06-09T14:31:28.000Z</time>
</trkpt>
<trkpt lat="28.132821" lon="-17.294389">
<ele>987.891800</ele>
<time>2009-06-09T14:31:42.000Z</time>
</trkpt>
<trkpt lat="28.132755" lon="-17.294293">
<ele>987.891800</ele>
<time>2009-06-09T14:31:51.000Z</time>
</trkpt>
<trkpt lat="28.132711" lon="-17.294263">
<ele>987.891800</ele>
<time>2009-06-09T14:31:55.000Z</time>
</trkpt>
<trkpt lat="28.132605" lon="-17.294188">
<ele>987.891800</ele>
<time>2009-06-09T14:32:06.000Z</time>
</trkpt>
<trkpt lat="28.132463" lon="-17.294113">
<ele>988.372800</ele>
<time>2009-06-09T14:32:18.000Z</time>
</trkpt>
<trkpt lat="28.132458" lon="-17.294105">
<ele>988.372800</ele>
<time>2009-06-09T14:32:19.000Z</time>
</trkpt>
<trkpt lat="28.132421" lon="-17.294012">
<ele>988.372800</ele>
<time>2009-06-09T14:32:26.000Z</time>
</trkpt>
<trkpt lat="28.132316" lon="-17.293965">
<ele>989.334000</ele>
<time>2009-06-09T14:32:33.000Z</time>
</trkpt>
<trkpt lat="28.132257" lon="-17.293849">
<ele>990.295400</ele>
<time>2009-06-09T14:32:44.000Z</time>
</trkpt>
<trkpt lat="28.132226" lon="-17.293821">
<ele>989.814700</ele>
<time>2009-06-09T14:32:48.000Z</time>
</trkpt>
<trkpt lat="28.132200" lon="-17.293829">
<ele>990.295400</ele>
<time>2009-06-09T14:33:04.000Z</time>
</trkpt>
<trkpt lat="28.132124" lon="-17.293784">
<ele>991.256600</ele>
<time>2009-06-09T14:33:39.000Z</time>
</trkpt>
<trkpt lat="28.131989" lon="-17.293595">
<ele>990.775900</ele>
<time>2009-06-09T14:33:58.000Z</time>
</trkpt>
<trkpt lat="28.131847" lon="-17.293482">
<ele>993.659900</ele>
<time>2009-06-09T14:34:12.000Z</time>
</trkpt>
<trkpt lat="28.131838" lon="-17.293477">
<ele>993.659900</ele>
<time>2009-06-09T14:34:13.000Z</time>
</trkpt>
<trkpt lat="28.131763" lon="-17.293476">
<ele>994.140600</ele>
<time>2009-06-09T14:34:17.000Z</time>
</trkpt>
<trkpt lat="28.131668" lon="-17.293421">
<ele>995.582500</ele>
<time>2009-06-09T14:34:27.000Z</time>
</trkpt>
<trkpt lat="28.131559" lon="-17.293359">
<ele>997.024400</ele>
<time>2009-06-09T14:34:39.000Z</time>
</trkpt>
<trkpt lat="28.131518" lon="-17.293307">
<ele>997.505100</ele>
<time>2009-06-09T14:34:46.000Z</time>
</trkpt>
<trkpt lat="28.131461" lon="-17.293212">
<ele>998.947000</ele>
<time>2009-06-09T14:35:00.000Z</time>
</trkpt>
<trkpt lat="28.131428" lon="-17.293198">
<ele>998.947000</ele>
<time>2009-06-09T14:35:04.000Z</time>
</trkpt>
<trkpt lat="28.131338" lon="-17.293135">
<ele>999.908400</ele>
<time>2009-06-09T14:35:11.000Z</time>
</trkpt>
<trkpt lat="28.131247" lon="-17.293063">
<ele>1000.389000</ele>
<time>2009-06-09T14:35:20.000Z</time>
</trkpt>
<trkpt lat="28.131192" lon="-17.293019">
<ele>1000.389000</ele>
<time>2009-06-09T14:35:25.000Z</time>
</trkpt>
<trkpt lat="28.131150" lon="-17.292981">
<ele>1000.870000</ele>
<time>2009-06-09T14:35:30.000Z</time>
</trkpt>
<trkpt lat="28.131096" lon="-17.292962">
<ele>1001.350000</ele>
<time>2009-06-09T14:35:34.000Z</time>
</trkpt>
<trkpt lat="28.131061" lon="-17.292931">
<ele>1001.831000</ele>
<time>2009-06-09T14:35:37.000Z</time>
</trkpt>
<trkpt lat="28.131000" lon="-17.292916">
<ele>1001.831000</ele>
<time>2009-06-09T14:35:41.000Z</time>
</trkpt>
<trkpt lat="28.130877" lon="-17.292905">
<ele>1002.792000</ele>
<time>2009-06-09T14:35:51.000Z</time>
</trkpt>
<trkpt lat="28.130714" lon="-17.292897">
<ele>1004.235000</ele>
<time>2009-06-09T14:36:06.000Z</time>
</trkpt>
<trkpt lat="28.130696" lon="-17.292891">
<ele>1004.715000</ele>
<time>2009-06-09T14:36:08.000Z</time>
</trkpt>
<trkpt lat="28.130539" lon="-17.292889">
<ele>1006.157000</ele>
<time>2009-06-09T14:36:21.000Z</time>
</trkpt>
<trkpt lat="28.130466" lon="-17.292874">
<ele>1007.118000</ele>
<time>2009-06-09T14:36:35.000Z</time>
</trkpt>
<trkpt lat="28.130257" lon="-17.292876">
<ele>1009.522000</ele>
<time>2009-06-09T14:36:55.000Z</time>
</trkpt>
<trkpt lat="28.130237" lon="-17.292876">
<ele>1010.002000</ele>
<time>2009-06-09T14:36:57.000Z</time>
</trkpt>
<trkpt lat="28.130146" lon="-17.292906">
<ele>1010.002000</ele>
<time>2009-06-09T14:37:07.000Z</time>
</trkpt>
<trkpt lat="28.129999" lon="-17.292938">
<ele>1009.041000</ele>
<time>2009-06-09T14:37:20.000Z</time>
</trkpt>
<trkpt lat="28.129873" lon="-17.292918">
<ele>1009.041000</ele>
<time>2009-06-09T14:37:33.000Z</time>
</trkpt>
<trkpt lat="28.129818" lon="-17.292892">
<ele>1009.522000</ele>
<time>2009-06-09T14:37:39.000Z</time>
</trkpt>
<trkpt lat="28.129786" lon="-17.292891">
<ele>1010.002000</ele>
<time>2009-06-09T14:37:42.000Z</time>
</trkpt>
<trkpt lat="28.129724" lon="-17.292878">
<ele>1010.483000</ele>
<time>2009-06-09T14:37:48.000Z</time>
</trkpt>
<trkpt lat="28.129586" lon="-17.292817">
<ele>1010.964000</ele>
<time>2009-06-09T14:38:02.000Z</time>
</trkpt>
<trkpt lat="28.129579" lon="-17.292824">
<ele>1010.483000</ele>
<time>2009-06-09T14:38:03.000Z</time>
</trkpt>
<trkpt lat="28.129419" lon="-17.292850">
<ele>1012.406000</ele>
<time>2009-06-09T14:38:18.000Z</time>
</trkpt>
<trkpt lat="28.129379" lon="-17.292900">
<ele>1013.847000</ele>
<time>2009-06-09T14:38:32.000Z</time>
</trkpt>
<trkpt lat="28.129340" lon="-17.292844">
<ele>1013.367000</ele>
<time>2009-06-09T14:39:02.000Z</time>
</trkpt>
<trkpt lat="28.129279" lon="-17.292761">
<ele>1014.328000</ele>
<time>2009-06-09T14:39:22.000Z</time>
</trkpt>
<trkpt lat="28.129234" lon="-17.292668">
<ele>1014.328000</ele>
<time>2009-06-09T14:39:33.000Z</time>
</trkpt>
<trkpt lat="28.129153" lon="-17.292495">
<ele>1016.251000</ele>
<time>2009-06-09T14:39:53.000Z</time>
</trkpt>
<trkpt lat="28.129104" lon="-17.292438">
<ele>1017.693000</ele>
<time>2009-06-09T14:40:21.000Z</time>
</trkpt>
<trkpt lat="28.129218" lon="-17.292473">
<ele>1018.654000</ele>
<time>2009-06-09T14:40:56.000Z</time>
</trkpt>
<trkpt lat="28.129214" lon="-17.292476">
<ele>1018.654000</ele>
<time>2009-06-09T14:41:23.000Z</time>
</trkpt>
<trkpt lat="28.129214" lon="-17.292476">
<ele>1021.058000</ele>
<time>2009-06-09T14:43:55.000Z</time>
</trkpt>
<trkpt lat="28.129145" lon="-17.292390">
<ele>1013.847000</ele>
<time>2009-06-09T14:43:58.000Z</time>
</trkpt>
<trkpt lat="28.129190" lon="-17.292364">
<ele>1018.654000</ele>
<time>2009-06-09T14:43:59.000Z</time>
</trkpt>
<trkpt lat="28.129172" lon="-17.292397">
<ele>1019.135000</ele>
<time>2009-06-09T14:44:00.000Z</time>
</trkpt>
<trkpt lat="28.129143" lon="-17.292422">
<ele>1018.654000</ele>
<time>2009-06-09T14:45:43.000Z</time>
</trkpt>
<trkpt lat="28.129143" lon="-17.292422">
<ele>1024.903000</ele>
<time>2009-06-09T15:09:52.000Z</time>
</trkpt>
<trkpt lat="28.129133" lon="-17.292487">
<ele>1028.267000</ele>
<time>2009-06-09T15:09:54.000Z</time>
</trkpt>
<trkpt lat="28.129094" lon="-17.292567">
<ele>1018.654000</ele>
<time>2009-06-09T15:09:55.000Z</time>
</trkpt>
<trkpt lat="28.129120" lon="-17.292474">
<ele>1020.096000</ele>
<time>2009-06-09T15:10:21.000Z</time>
</trkpt>
<trkpt lat="28.129093" lon="-17.292590">
<ele>1020.096000</ele>
<time>2009-06-09T15:12:41.000Z</time>
</trkpt>
<trkpt lat="28.129022" lon="-17.292145">
<ele>1020.577000</ele>
<time>2009-06-09T15:13:28.000Z</time>
</trkpt>
<trkpt lat="28.128969" lon="-17.292332">
<ele>1020.096000</ele>
<time>2009-06-09T15:14:05.000Z</time>
</trkpt>
<trkpt lat="28.129051" lon="-17.292571">
<ele>1021.058000</ele>
<time>2009-06-09T15:14:42.000Z</time>
</trkpt>
<trkpt lat="28.129103" lon="-17.292608">
<ele>1017.693000</ele>
<time>2009-06-09T15:15:03.000Z</time>
</trkpt>
<trkpt lat="28.129208" lon="-17.292606">
<ele>1018.654000</ele>
<time>2009-06-09T15:15:17.000Z</time>
</trkpt>
<trkpt lat="28.129327" lon="-17.292588">
<ele>1019.135000</ele>
<time>2009-06-09T15:15:35.000Z</time>
</trkpt>
<trkpt lat="28.129432" lon="-17.292496">
<ele>1020.577000</ele>
<time>2009-06-09T15:15:50.000Z</time>
</trkpt>
<trkpt lat="28.129432" lon="-17.292403">
<ele>1021.058000</ele>
<time>2009-06-09T15:15:59.000Z</time>
</trkpt>
<trkpt lat="28.129447" lon="-17.292243">
<ele>1023.941000</ele>
<time>2009-06-09T15:16:13.000Z</time>
</trkpt>
<trkpt lat="28.129422" lon="-17.292185">
<ele>1024.422000</ele>
<time>2009-06-09T15:16:27.000Z</time>
</trkpt>
<trkpt lat="28.129433" lon="-17.292050">
<ele>1025.864000</ele>
<time>2009-06-09T15:16:50.000Z</time>
</trkpt>
<trkpt lat="28.129460" lon="-17.291864">
<ele>1027.787000</ele>
<time>2009-06-09T15:17:08.000Z</time>
</trkpt>
<trkpt lat="28.129471" lon="-17.291747">
<ele>1028.748000</ele>
<time>2009-06-09T15:17:24.000Z</time>
</trkpt>
<trkpt lat="28.129526" lon="-17.291626">
<ele>1030.190000</ele>
<time>2009-06-09T15:17:40.000Z</time>
</trkpt>
<trkpt lat="28.129589" lon="-17.291501">
<ele>1031.151000</ele>
<time>2009-06-09T15:17:58.000Z</time>
</trkpt>
<trkpt lat="28.129595" lon="-17.291410">
<ele>1031.151000</ele>
<time>2009-06-09T15:18:19.000Z</time>
</trkpt>
<trkpt lat="28.129628" lon="-17.291264">
<ele>1034.035000</ele>
<time>2009-06-09T15:18:39.000Z</time>
</trkpt>
<trkpt lat="28.129675" lon="-17.291103">
<ele>1035.477000</ele>
<time>2009-06-09T15:18:59.000Z</time>
</trkpt>
<trkpt lat="28.129683" lon="-17.291046">
<ele>1036.919000</ele>
<time>2009-06-09T15:19:24.000Z</time>
</trkpt>
<trkpt lat="28.129662" lon="-17.290941">
<ele>1038.361000</ele>
<time>2009-06-09T15:19:39.000Z</time>
</trkpt>
<trkpt lat="28.129704" lon="-17.290787">
<ele>1040.764000</ele>
<time>2009-06-09T15:20:05.000Z</time>
</trkpt>
<trkpt lat="28.129760" lon="-17.290606">
<ele>1044.129000</ele>
<time>2009-06-09T15:20:28.000Z</time>
</trkpt>
<trkpt lat="28.129828" lon="-17.290467">
<ele>1047.013000</ele>
<time>2009-06-09T15:20:48.000Z</time>
</trkpt>
<trkpt lat="28.129857" lon="-17.290329">
<ele>1048.455000</ele>
<time>2009-06-09T15:21:07.000Z</time>
</trkpt>
<trkpt lat="28.129838" lon="-17.290295">
<ele>1049.416000</ele>
<time>2009-06-09T15:21:22.000Z</time>
</trkpt>
<trkpt lat="28.129899" lon="-17.290188">
<ele>1049.897000</ele>
<time>2009-06-09T15:21:43.000Z</time>
</trkpt>
<trkpt lat="28.129915" lon="-17.290175">
<ele>1050.858000</ele>
<time>2009-06-09T15:21:46.000Z</time>
</trkpt>
<trkpt lat="28.129935" lon="-17.290085">
<ele>1051.820000</ele>
<time>2009-06-09T15:21:59.000Z</time>
</trkpt>
<trkpt lat="28.129937" lon="-17.290146">
<ele>1050.378000</ele>
<time>2009-06-09T15:22:26.000Z</time>
</trkpt>
<trkpt lat="28.129974" lon="-17.290029">
<ele>1051.339000</ele>
<time>2009-06-09T15:24:54.000Z</time>
</trkpt>
<trkpt lat="28.129993" lon="-17.289938">
<ele>1051.820000</ele>
<time>2009-06-09T15:25:04.000Z</time>
</trkpt>
<trkpt lat="28.130000" lon="-17.289916">
<ele>1051.339000</ele>
<time>2009-06-09T15:25:08.000Z</time>
</trkpt>
<trkpt lat="28.129997" lon="-17.289859">
<ele>1050.858000</ele>
<time>2009-06-09T15:25:14.000Z</time>
</trkpt>
<trkpt lat="28.130104" lon="-17.289705">
<ele>1053.262000</ele>
<time>2009-06-09T15:25:39.000Z</time>
</trkpt>
<trkpt lat="28.130182" lon="-17.289636">
<ele>1056.626000</ele>
<time>2009-06-09T15:25:51.000Z</time>
</trkpt>
<trkpt lat="28.130328" lon="-17.289521">
<ele>1058.549000</ele>
<time>2009-06-09T15:26:14.000Z</time>
</trkpt>
<trkpt lat="28.130458" lon="-17.289459">
<ele>1059.030000</ele>
<time>2009-06-09T15:26:38.000Z</time>
</trkpt>
<trkpt lat="28.130562" lon="-17.289447">
<ele>1059.030000</ele>
<time>2009-06-09T15:26:46.000Z</time>
</trkpt>
<trkpt lat="28.130693" lon="-17.289431">
<ele>1057.588000</ele>
<time>2009-06-09T15:27:00.000Z</time>
</trkpt>
<trkpt lat="28.130799" lon="-17.289421">
<ele>1056.146000</ele>
<time>2009-06-09T15:27:14.000Z</time>
</trkpt>
<trkpt lat="28.130941" lon="-17.289391">
<ele>1057.107000</ele>
<time>2009-06-09T15:27:50.000Z</time>
</trkpt>
<trkpt lat="28.131072" lon="-17.289393">
<ele>1059.030000</ele>
<time>2009-06-09T15:28:05.000Z</time>
</trkpt>
<trkpt lat="28.131252" lon="-17.289408">
<ele>1056.626000</ele>
<time>2009-06-09T15:28:23.000Z</time>
</trkpt>
<trkpt lat="28.131307" lon="-17.289475">
<ele>1057.107000</ele>
<time>2009-06-09T15:28:42.000Z</time>
</trkpt>
<trkpt lat="28.131643" lon="-17.289442">
<ele>1056.146000</ele>
<time>2009-06-09T15:29:01.000Z</time>
</trkpt>
<trkpt lat="28.131768" lon="-17.289423">
<ele>1055.665000</ele>
<time>2009-06-09T15:29:15.000Z</time>
</trkpt>
<trkpt lat="28.131922" lon="-17.289454">
<ele>1053.742000</ele>
<time>2009-06-09T15:29:33.000Z</time>
</trkpt>
<trkpt lat="28.132065" lon="-17.289561">
<ele>1052.781000</ele>
<time>2009-06-09T15:29:51.000Z</time>
</trkpt>
<trkpt lat="28.132207" lon="-17.289807">
<ele>1052.300000</ele>
<time>2009-06-09T15:30:18.000Z</time>
</trkpt>
<trkpt lat="28.132358" lon="-17.289961">
<ele>1053.262000</ele>
<time>2009-06-09T15:30:37.000Z</time>
</trkpt>
<trkpt lat="28.132514" lon="-17.290108">
<ele>1052.781000</ele>
<time>2009-06-09T15:30:59.000Z</time>
</trkpt>
<trkpt lat="28.132678" lon="-17.290195">
<ele>1052.781000</ele>
<time>2009-06-09T15:31:15.000Z</time>
</trkpt>
<trkpt lat="28.132783" lon="-17.290222">
<ele>1051.339000</ele>
<time>2009-06-09T15:31:29.000Z</time>
</trkpt>
<trkpt lat="28.132909" lon="-17.290144">
<ele>1049.897000</ele>
<time>2009-06-09T15:31:44.000Z</time>
</trkpt>
<trkpt lat="28.133112" lon="-17.290132">
<ele>1047.974000</ele>
<time>2009-06-09T15:32:02.000Z</time>
</trkpt>
<trkpt lat="28.133173" lon="-17.290118">
<ele>1046.052000</ele>
<time>2009-06-09T15:32:11.000Z</time>
</trkpt>
<trkpt lat="28.133369" lon="-17.290107">
<ele>1044.610000</ele>
<time>2009-06-09T15:32:30.000Z</time>
</trkpt>
<trkpt lat="28.133516" lon="-17.290057">
<ele>1041.726000</ele>
<time>2009-06-09T15:32:50.000Z</time>
</trkpt>
<trkpt lat="28.133635" lon="-17.289965">
<ele>1039.803000</ele>
<time>2009-06-09T15:33:08.000Z</time>
</trkpt>
<trkpt lat="28.133743" lon="-17.289831">
<ele>1037.400000</ele>
<time>2009-06-09T15:33:28.000Z</time>
</trkpt>
<trkpt lat="28.133860" lon="-17.289765">
<ele>1034.997000</ele>
<time>2009-06-09T15:33:46.000Z</time>
</trkpt>
<trkpt lat="28.133913" lon="-17.289642">
<ele>1034.997000</ele>
<time>2009-06-09T15:34:11.000Z</time>
</trkpt>
<trkpt lat="28.133917" lon="-17.289626">
<ele>1033.074000</ele>
<time>2009-06-09T15:34:19.000Z</time>
</trkpt>
<trkpt lat="28.133922" lon="-17.289477">
<ele>1034.035000</ele>
<time>2009-06-09T15:35:05.000Z</time>
</trkpt>
<trkpt lat="28.133924" lon="-17.289391">
<ele>1033.554000</ele>
<time>2009-06-09T15:35:57.000Z</time>
</trkpt>
<trkpt lat="28.133892" lon="-17.289209">
<ele>1031.151000</ele>
<time>2009-06-09T15:36:15.000Z</time>
</trkpt>
<trkpt lat="28.134069" lon="-17.289101">
<ele>1033.074000</ele>
<time>2009-06-09T15:37:14.000Z</time>
</trkpt>
<trkpt lat="28.134168" lon="-17.289068">
<ele>1034.997000</ele>
<time>2009-06-09T15:37:40.000Z</time>
</trkpt>
<trkpt lat="28.134366" lon="-17.288845">
<ele>1035.958000</ele>
<time>2009-06-09T15:38:05.000Z</time>
</trkpt>
<trkpt lat="28.134558" lon="-17.288665">
<ele>1039.323000</ele>
<time>2009-06-09T15:38:25.000Z</time>
</trkpt>
<trkpt lat="28.134555" lon="-17.288395">
<ele>1040.284000</ele>
<time>2009-06-09T15:38:45.000Z</time>
</trkpt>
<trkpt lat="28.134529" lon="-17.288177">
<ele>1039.803000</ele>
<time>2009-06-09T15:39:05.000Z</time>
</trkpt>
<trkpt lat="28.134389" lon="-17.287942">
<ele>1040.284000</ele>
<time>2009-06-09T15:39:26.000Z</time>
</trkpt>
<trkpt lat="28.134230" lon="-17.287618">
<ele>1043.168000</ele>
<time>2009-06-09T15:39:56.000Z</time>
</trkpt>
<trkpt lat="28.134385" lon="-17.287379">
<ele>1042.687000</ele>
<time>2009-06-09T15:40:16.000Z</time>
</trkpt>
<trkpt lat="28.134579" lon="-17.287220">
<ele>1043.168000</ele>
<time>2009-06-09T15:40:37.000Z</time>
</trkpt>
<trkpt lat="28.134692" lon="-17.286979">
<ele>1045.571000</ele>
<time>2009-06-09T15:40:59.000Z</time>
</trkpt>
<trkpt lat="28.134735" lon="-17.286777">
<ele>1044.610000</ele>
<time>2009-06-09T15:41:17.000Z</time>
</trkpt>
<trkpt lat="28.134858" lon="-17.286500">
<ele>1044.610000</ele>
<time>2009-06-09T15:41:38.000Z</time>
</trkpt>
<trkpt lat="28.134856" lon="-17.286321">
<ele>1043.168000</ele>
<time>2009-06-09T15:41:56.000Z</time>
</trkpt>
<trkpt lat="28.134884" lon="-17.286108">
<ele>1042.207000</ele>
<time>2009-06-09T15:42:13.000Z</time>
</trkpt>
<trkpt lat="28.135089" lon="-17.286119">
<ele>1044.610000</ele>
<time>2009-06-09T15:42:28.000Z</time>
</trkpt>
<trkpt lat="28.135278" lon="-17.286219">
<ele>1043.648000</ele>
<time>2009-06-09T15:42:45.000Z</time>
</trkpt>
<trkpt lat="28.135456" lon="-17.286271">
<ele>1042.207000</ele>
<time>2009-06-09T15:43:06.000Z</time>
</trkpt>
<trkpt lat="28.135630" lon="-17.286181">
<ele>1040.284000</ele>
<time>2009-06-09T15:43:26.000Z</time>
</trkpt>
<trkpt lat="28.135727" lon="-17.286297">
<ele>1040.284000</ele>
<time>2009-06-09T15:43:47.000Z</time>
</trkpt>
<trkpt lat="28.135881" lon="-17.286439">
<ele>1040.284000</ele>
<time>2009-06-09T15:45:07.000Z</time>
</trkpt>
<trkpt lat="28.136131" lon="-17.286419">
<ele>1040.284000</ele>
<time>2009-06-09T15:45:51.000Z</time>
</trkpt>
<trkpt lat="28.136376" lon="-17.286396">
<ele>1040.284000</ele>
<time>2009-06-09T15:46:00.000Z</time>
</trkpt>
<trkpt lat="28.136606" lon="-17.286456">
<ele>1040.764000</ele>
<time>2009-06-09T15:46:14.000Z</time>
</trkpt>
<trkpt lat="28.136595" lon="-17.286702">
<ele>1042.207000</ele>
<time>2009-06-09T15:46:37.000Z</time>
</trkpt>
<trkpt lat="28.136628" lon="-17.286967">
<ele>1042.207000</ele>
<time>2009-06-09T15:46:54.000Z</time>
</trkpt>
<trkpt lat="28.136671" lon="-17.287064">
<ele>1042.687000</ele>
<time>2009-06-09T15:47:01.000Z</time>
</trkpt>
<trkpt lat="28.136693" lon="-17.287147">
<ele>1043.168000</ele>
<time>2009-06-09T15:47:07.000Z</time>
</trkpt>
<trkpt lat="28.136757" lon="-17.287234">
<ele>1043.168000</ele>
<time>2009-06-09T15:47:15.000Z</time>
</trkpt>
<trkpt lat="28.136771" lon="-17.287246">
<ele>1043.648000</ele>
<time>2009-06-09T15:47:18.000Z</time>
</trkpt>
<trkpt lat="28.136813" lon="-17.287284">
<ele>1043.648000</ele>
<time>2009-06-09T15:47:23.000Z</time>
</trkpt>
<trkpt lat="28.136878" lon="-17.287330">
<ele>1043.648000</ele>
<time>2009-06-09T15:47:28.000Z</time>
</trkpt>
<trkpt lat="28.136966" lon="-17.287350">
<ele>1044.610000</ele>
<time>2009-06-09T15:47:34.000Z</time>
</trkpt>
<trkpt lat="28.137091" lon="-17.287458">
<ele>1044.610000</ele>
<time>2009-06-09T15:47:46.000Z</time>
</trkpt>
<trkpt lat="28.137105" lon="-17.287450">
<ele>1045.090000</ele>
<time>2009-06-09T15:48:03.000Z</time>
</trkpt>
<trkpt lat="28.137239" lon="-17.287515">
<ele>1046.052000</ele>
<time>2009-06-09T15:48:19.000Z</time>
</trkpt>
<trkpt lat="28.137272" lon="-17.287532">
<ele>1041.726000</ele>
<time>2009-06-09T15:48:22.000Z</time>
</trkpt>
<trkpt lat="28.137348" lon="-17.287549">
<ele>1045.571000</ele>
<time>2009-06-09T15:48:31.000Z</time>
</trkpt>
<trkpt lat="28.137360" lon="-17.287557">
<ele>1045.571000</ele>
<time>2009-06-09T15:48:32.000Z</time>
</trkpt>
<trkpt lat="28.137405" lon="-17.287571">
<ele>1047.974000</ele>
<time>2009-06-09T15:48:36.000Z</time>
</trkpt>
<trkpt lat="28.137574" lon="-17.287614">
<ele>1049.897000</ele>
<time>2009-06-09T15:48:51.000Z</time>
</trkpt>
<trkpt lat="28.137605" lon="-17.287625">
<ele>1049.897000</ele>
<time>2009-06-09T15:49:09.000Z</time>
</trkpt>
<trkpt lat="28.137838" lon="-17.287455">
<ele>1052.300000</ele>
<time>2009-06-09T15:49:38.000Z</time>
</trkpt>
<trkpt lat="28.138101" lon="-17.287421">
<ele>1052.781000</ele>
<time>2009-06-09T15:49:59.000Z</time>
</trkpt>
<trkpt lat="28.138367" lon="-17.287558">
<ele>1053.742000</ele>
<time>2009-06-09T15:50:24.000Z</time>
</trkpt>
<trkpt lat="28.138576" lon="-17.287785">
<ele>1056.146000</ele>
<time>2009-06-09T15:50:50.000Z</time>
</trkpt>
<trkpt lat="28.138620" lon="-17.287818">
<ele>1057.107000</ele>
<time>2009-06-09T15:50:59.000Z</time>
</trkpt>
<trkpt lat="28.138646" lon="-17.287822">
<ele>1057.107000</ele>
<time>2009-06-09T15:51:01.000Z</time>
</trkpt>
<trkpt lat="28.138815" lon="-17.287866">
<ele>1057.588000</ele>
<time>2009-06-09T15:51:17.000Z</time>
</trkpt>
<trkpt lat="28.139116" lon="-17.287823">
<ele>1058.068000</ele>
<time>2009-06-09T15:51:42.000Z</time>
</trkpt>
<trkpt lat="28.139263" lon="-17.287829">
<ele>1057.588000</ele>
<time>2009-06-09T15:51:58.000Z</time>
</trkpt>
<trkpt lat="28.139269" lon="-17.287832">
<ele>1057.588000</ele>
<time>2009-06-09T15:51:59.000Z</time>
</trkpt>
<trkpt lat="28.139519" lon="-17.287939">
<ele>1056.626000</ele>
<time>2009-06-09T15:52:23.000Z</time>
</trkpt>
<trkpt lat="28.139837" lon="-17.288057">
<ele>1058.549000</ele>
<time>2009-06-09T15:52:48.000Z</time>
</trkpt>
<trkpt lat="28.140054" lon="-17.288037">
<ele>1059.030000</ele>
<time>2009-06-09T15:53:08.000Z</time>
</trkpt>
<trkpt lat="28.140032" lon="-17.287849">
<ele>1059.030000</ele>
<time>2009-06-09T15:53:22.000Z</time>
</trkpt>
<trkpt lat="28.139878" lon="-17.287551">
<ele>1058.068000</ele>
<time>2009-06-09T15:53:50.000Z</time>
</trkpt>
<trkpt lat="28.139847" lon="-17.287394">
<ele>1058.068000</ele>
<time>2009-06-09T15:54:13.000Z</time>
</trkpt>
<trkpt lat="28.139913" lon="-17.287045">
<ele>1057.588000</ele>
<time>2009-06-09T15:54:36.000Z</time>
</trkpt>
<trkpt lat="28.139879" lon="-17.286859">
<ele>1056.626000</ele>
<time>2009-06-09T15:55:04.000Z</time>
</trkpt>
<trkpt lat="28.139869" lon="-17.286382">
<ele>1055.665000</ele>
<time>2009-06-09T15:55:41.000Z</time>
</trkpt>
<trkpt lat="28.139675" lon="-17.285866">
<ele>1056.626000</ele>
<time>2009-06-09T15:55:59.000Z</time>
</trkpt>
<trkpt lat="28.139457" lon="-17.285425">
<ele>1056.626000</ele>
<time>2009-06-09T15:56:27.000Z</time>
</trkpt>
<trkpt lat="28.139239" lon="-17.285072">
<ele>1055.184000</ele>
<time>2009-06-09T15:56:55.000Z</time>
</trkpt>
<trkpt lat="28.139068" lon="-17.284747">
<ele>1054.704000</ele>
<time>2009-06-09T15:57:22.000Z</time>
</trkpt>
<trkpt lat="28.138949" lon="-17.284347">
<ele>1054.223000</ele>
<time>2009-06-09T15:57:53.000Z</time>
</trkpt>
<trkpt lat="28.138931" lon="-17.284284">
<ele>1054.223000</ele>
<time>2009-06-09T15:58:16.000Z</time>
</trkpt>
<trkpt lat="28.138955" lon="-17.284151">
<ele>1054.704000</ele>
<time>2009-06-09T15:58:59.000Z</time>
</trkpt>
<trkpt lat="28.139165" lon="-17.284269">
<ele>1054.223000</ele>
<time>2009-06-09T16:05:40.000Z</time>
</trkpt>
<trkpt lat="28.139375" lon="-17.284480">
<ele>1056.146000</ele>
<time>2009-06-09T16:06:06.000Z</time>
</trkpt>
<trkpt lat="28.139541" lon="-17.284699">
<ele>1058.549000</ele>
<time>2009-06-09T16:06:31.000Z</time>
</trkpt>
<trkpt lat="28.139869" lon="-17.284779">
<ele>1059.991000</ele>
<time>2009-06-09T16:07:00.000Z</time>
</trkpt>
<trkpt lat="28.140199" lon="-17.284953">
<ele>1062.394000</ele>
<time>2009-06-09T16:07:31.000Z</time>
</trkpt>
<trkpt lat="28.140501" lon="-17.284948">
<ele>1064.797000</ele>
<time>2009-06-09T16:07:56.000Z</time>
</trkpt>
<trkpt lat="28.140818" lon="-17.284849">
<ele>1064.797000</ele>
<time>2009-06-09T16:08:22.000Z</time>
</trkpt>
<trkpt lat="28.141076" lon="-17.284891">
<ele>1066.239000</ele>
<time>2009-06-09T16:08:46.000Z</time>
</trkpt>
<trkpt lat="28.141194" lon="-17.285166">
<ele>1067.681000</ele>
<time>2009-06-09T16:09:07.000Z</time>
</trkpt>
<trkpt lat="28.141370" lon="-17.285421">
<ele>1070.085000</ele>
<time>2009-06-09T16:09:30.000Z</time>
</trkpt>
<trkpt lat="28.141570" lon="-17.285679">
<ele>1070.085000</ele>
<time>2009-06-09T16:09:59.000Z</time>
</trkpt>
<trkpt lat="28.141801" lon="-17.285783">
<ele>1072.007000</ele>
<time>2009-06-09T16:10:15.000Z</time>
</trkpt>
<trkpt lat="28.142074" lon="-17.285648">
<ele>1072.007000</ele>
<time>2009-06-09T16:10:39.000Z</time>
</trkpt>
<trkpt lat="28.142405" lon="-17.285318">
<ele>1070.565000</ele>
<time>2009-06-09T16:11:15.000Z</time>
</trkpt>
<trkpt lat="28.142738" lon="-17.285180">
<ele>1071.527000</ele>
<time>2009-06-09T16:11:44.000Z</time>
</trkpt>
<trkpt lat="28.142815" lon="-17.285236">
<ele>1072.969000</ele>
<time>2009-06-09T16:11:55.000Z</time>
</trkpt>
<trkpt lat="28.142872" lon="-17.285311">
<ele>1073.449000</ele>
<time>2009-06-09T16:12:15.000Z</time>
</trkpt>
<trkpt lat="28.142871" lon="-17.285308">
<ele>1072.969000</ele>
<time>2009-06-09T16:12:29.000Z</time>
</trkpt>
</trkseg>
</trk>
</gpx>
